<?xml version="1.0" encoding="UTF-8" standalone="no" ?>
<gpx xmlns="http://www.topografix.com/GPX/1/1" xmlns:xsi="http://www.w3.org/2001/XMLSchema-instance" xsi:schemaLocation="http://www.topografix.com/GPX/1/1 http://www.topografix.com/GPX/1/1/gpx.xsd" version="1.1" creator="VisuGPX - https://www.visugpx.com">
  <metadata>
    <name>Oppède </name>
    <desc><![CDATA[très beau parcours surtout la montée au creux des falaises]]></desc>
  </metadata>
  <trk>
    <name><![CDATA[Oppède Marche 14 sept. 2019 à 08:38]]></name>
    <trkseg>
      <trkpt lat="43.83066" lon="5.16002">
        <ele>203</ele>
        <time>2019-09-14T06:38:34Z</time>
      </trkpt>
      <trkpt lat="43.83066" lon="5.16002">
        <ele>203</ele>
        <time>2019-09-14T06:38:35Z</time>
      </trkpt>
      <trkpt lat="43.83081" lon="5.16007">
        <ele>219</ele>
        <time>2019-09-14T06:38:41Z</time>
      </trkpt>
      <trkpt lat="43.83089" lon="5.16014">
        <ele>219</ele>
        <time>2019-09-14T06:38:55Z</time>
      </trkpt>
      <trkpt lat="43.83083" lon="5.16026">
        <ele>220</ele>
        <time>2019-09-14T06:39:09Z</time>
      </trkpt>
      <trkpt lat="43.83073" lon="5.16031">
        <ele>219</ele>
        <time>2019-09-14T06:39:33Z</time>
      </trkpt>
      <trkpt lat="43.83064" lon="5.16028">
        <ele>219</ele>
        <time>2019-09-14T06:39:44Z</time>
      </trkpt>
      <trkpt lat="43.83054" lon="5.16029">
        <ele>221</ele>
        <time>2019-09-14T06:39:57Z</time>
      </trkpt>
      <trkpt lat="43.83055" lon="5.16043">
        <ele>222</ele>
        <time>2019-09-14T06:40:08Z</time>
      </trkpt>
      <trkpt lat="43.83049" lon="5.16054">
        <ele>222</ele>
        <time>2019-09-14T06:40:19Z</time>
      </trkpt>
      <trkpt lat="43.83041" lon="5.16061">
        <ele>224</ele>
        <time>2019-09-14T06:40:39Z</time>
      </trkpt>
      <trkpt lat="43.83033" lon="5.1607">
        <ele>225</ele>
        <time>2019-09-14T06:41:03Z</time>
      </trkpt>
      <trkpt lat="43.83024" lon="5.16081">
        <ele>226</ele>
        <time>2019-09-14T06:41:13Z</time>
      </trkpt>
      <trkpt lat="43.83017" lon="5.16092">
        <ele>227</ele>
        <time>2019-09-14T06:41:21Z</time>
      </trkpt>
      <trkpt lat="43.83011" lon="5.16104">
        <ele>227</ele>
        <time>2019-09-14T06:41:27Z</time>
      </trkpt>
      <trkpt lat="43.8301" lon="5.16118">
        <ele>227</ele>
        <time>2019-09-14T06:41:33Z</time>
      </trkpt>
      <trkpt lat="43.83008" lon="5.16133">
        <ele>227</ele>
        <time>2019-09-14T06:41:43Z</time>
      </trkpt>
      <trkpt lat="43.83" lon="5.16142">
        <ele>228</ele>
        <time>2019-09-14T06:41:51Z</time>
      </trkpt>
      <trkpt lat="43.82993" lon="5.1615">
        <ele>228</ele>
        <time>2019-09-14T06:42:01Z</time>
      </trkpt>
      <trkpt lat="43.82985" lon="5.16157">
        <ele>229</ele>
        <time>2019-09-14T06:42:11Z</time>
      </trkpt>
      <trkpt lat="43.82977" lon="5.16163">
        <ele>231</ele>
        <time>2019-09-14T06:42:35Z</time>
      </trkpt>
      <trkpt lat="43.82974" lon="5.16177">
        <ele>231</ele>
        <time>2019-09-14T06:42:45Z</time>
      </trkpt>
      <trkpt lat="43.82974" lon="5.16191">
        <ele>233</ele>
        <time>2019-09-14T06:42:55Z</time>
      </trkpt>
      <trkpt lat="43.82971" lon="5.16204">
        <ele>235</ele>
        <time>2019-09-14T06:43:05Z</time>
      </trkpt>
      <trkpt lat="43.82967" lon="5.16215">
        <ele>235</ele>
        <time>2019-09-14T06:43:17Z</time>
      </trkpt>
      <trkpt lat="43.82957" lon="5.16202">
        <ele>244</ele>
        <time>2019-09-14T06:44:53Z</time>
      </trkpt>
      <trkpt lat="43.82948" lon="5.16195">
        <ele>245</ele>
        <time>2019-09-14T06:44:59Z</time>
      </trkpt>
      <trkpt lat="43.82954" lon="5.16207">
        <ele>244</ele>
        <time>2019-09-14T06:45:09Z</time>
      </trkpt>
      <trkpt lat="43.82944" lon="5.16202">
        <ele>245</ele>
        <time>2019-09-14T06:45:15Z</time>
      </trkpt>
      <trkpt lat="43.82937" lon="5.16193">
        <ele>245</ele>
        <time>2019-09-14T06:45:21Z</time>
      </trkpt>
      <trkpt lat="43.82927" lon="5.16184">
        <ele>246</ele>
        <time>2019-09-14T06:45:27Z</time>
      </trkpt>
      <trkpt lat="43.82917" lon="5.16179">
        <ele>247</ele>
        <time>2019-09-14T06:46:15Z</time>
      </trkpt>
      <trkpt lat="43.8291" lon="5.1617">
        <ele>247</ele>
        <time>2019-09-14T06:46:35Z</time>
      </trkpt>
      <trkpt lat="43.82911" lon="5.16155">
        <ele>247</ele>
        <time>2019-09-14T06:46:45Z</time>
      </trkpt>
      <trkpt lat="43.82903" lon="5.16142">
        <ele>245</ele>
        <time>2019-09-14T06:47:01Z</time>
      </trkpt>
      <trkpt lat="43.82895" lon="5.16132">
        <ele>244</ele>
        <time>2019-09-14T06:47:09Z</time>
      </trkpt>
      <trkpt lat="43.82885" lon="5.16125">
        <ele>244</ele>
        <time>2019-09-14T06:47:17Z</time>
      </trkpt>
      <trkpt lat="43.82875" lon="5.16125">
        <ele>243</ele>
        <time>2019-09-14T06:47:27Z</time>
      </trkpt>
      <trkpt lat="43.82866" lon="5.16119">
        <ele>242</ele>
        <time>2019-09-14T06:47:37Z</time>
      </trkpt>
      <trkpt lat="43.82855" lon="5.1612">
        <ele>241</ele>
        <time>2019-09-14T06:47:49Z</time>
      </trkpt>
      <trkpt lat="43.82846" lon="5.16121">
        <ele>241</ele>
        <time>2019-09-14T06:47:57Z</time>
      </trkpt>
      <trkpt lat="43.82836" lon="5.16118">
        <ele>241</ele>
        <time>2019-09-14T06:48:07Z</time>
      </trkpt>
      <trkpt lat="43.82828" lon="5.16108">
        <ele>240</ele>
        <time>2019-09-14T06:49:01Z</time>
      </trkpt>
      <trkpt lat="43.82828" lon="5.16108">
        <ele>240</ele>
        <time>2019-09-14T06:49:03Z</time>
      </trkpt>
      <trkpt lat="43.82828" lon="5.16111">
        <ele>235</ele>
        <time>2019-09-14T06:50:14Z</time>
      </trkpt>
      <trkpt lat="43.82838" lon="5.16115">
        <ele>237</ele>
        <time>2019-09-14T06:50:36Z</time>
      </trkpt>
      <trkpt lat="43.82834" lon="5.16104">
        <ele>238</ele>
        <time>2019-09-14T06:51:04Z</time>
      </trkpt>
      <trkpt lat="43.82828" lon="5.16092">
        <ele>239</ele>
        <time>2019-09-14T06:51:14Z</time>
      </trkpt>
      <trkpt lat="43.82824" lon="5.16081">
        <ele>240</ele>
        <time>2019-09-14T06:51:22Z</time>
      </trkpt>
      <trkpt lat="43.82819" lon="5.16069">
        <ele>241</ele>
        <time>2019-09-14T06:51:30Z</time>
      </trkpt>
      <trkpt lat="43.82825" lon="5.16081">
        <ele>240</ele>
        <time>2019-09-14T06:51:46Z</time>
      </trkpt>
      <trkpt lat="43.82834" lon="5.16075">
        <ele>240</ele>
        <time>2019-09-14T06:52:02Z</time>
      </trkpt>
      <trkpt lat="43.82842" lon="5.16081">
        <ele>239</ele>
        <time>2019-09-14T06:52:12Z</time>
      </trkpt>
      <trkpt lat="43.82851" lon="5.16075">
        <ele>237</ele>
        <time>2019-09-14T06:52:24Z</time>
      </trkpt>
      <trkpt lat="43.82859" lon="5.16066">
        <ele>237</ele>
        <time>2019-09-14T06:52:32Z</time>
      </trkpt>
      <trkpt lat="43.82866" lon="5.16056">
        <ele>236</ele>
        <time>2019-09-14T06:52:50Z</time>
      </trkpt>
      <trkpt lat="43.82866" lon="5.16042">
        <ele>235</ele>
        <time>2019-09-14T06:53:08Z</time>
      </trkpt>
      <trkpt lat="43.82872" lon="5.16033">
        <ele>233</ele>
        <time>2019-09-14T06:53:18Z</time>
      </trkpt>
      <trkpt lat="43.82881" lon="5.16025">
        <ele>233</ele>
        <time>2019-09-14T06:53:34Z</time>
      </trkpt>
      <trkpt lat="43.82891" lon="5.16022">
        <ele>230</ele>
        <time>2019-09-14T06:53:48Z</time>
      </trkpt>
      <trkpt lat="43.82892" lon="5.16008">
        <ele>225</ele>
        <time>2019-09-14T06:54:24Z</time>
      </trkpt>
      <trkpt lat="43.82898" lon="5.15998">
        <ele>224</ele>
        <time>2019-09-14T06:54:32Z</time>
      </trkpt>
      <trkpt lat="43.82906" lon="5.15988">
        <ele>223</ele>
        <time>2019-09-14T06:54:42Z</time>
      </trkpt>
      <trkpt lat="43.82912" lon="5.15977">
        <ele>222</ele>
        <time>2019-09-14T06:54:52Z</time>
      </trkpt>
      <trkpt lat="43.82917" lon="5.15963">
        <ele>222</ele>
        <time>2019-09-14T06:55:02Z</time>
      </trkpt>
      <trkpt lat="43.8292" lon="5.1595">
        <ele>221</ele>
        <time>2019-09-14T06:55:12Z</time>
      </trkpt>
      <trkpt lat="43.82919" lon="5.15937">
        <ele>220</ele>
        <time>2019-09-14T06:55:20Z</time>
      </trkpt>
      <trkpt lat="43.82913" lon="5.15927">
        <ele>217</ele>
        <time>2019-09-14T06:55:36Z</time>
      </trkpt>
      <trkpt lat="43.82906" lon="5.15919">
        <ele>215</ele>
        <time>2019-09-14T06:55:44Z</time>
      </trkpt>
      <trkpt lat="43.829" lon="5.1591">
        <ele>215</ele>
        <time>2019-09-14T06:55:52Z</time>
      </trkpt>
      <trkpt lat="43.82895" lon="5.15896">
        <ele>213</ele>
        <time>2019-09-14T06:56:02Z</time>
      </trkpt>
      <trkpt lat="43.8289" lon="5.15885">
        <ele>213</ele>
        <time>2019-09-14T06:56:10Z</time>
      </trkpt>
      <trkpt lat="43.82882" lon="5.15875">
        <ele>213</ele>
        <time>2019-09-14T06:56:18Z</time>
      </trkpt>
      <trkpt lat="43.82879" lon="5.15863">
        <ele>213</ele>
        <time>2019-09-14T06:56:26Z</time>
      </trkpt>
      <trkpt lat="43.82885" lon="5.15853">
        <ele>212</ele>
        <time>2019-09-14T06:56:34Z</time>
      </trkpt>
      <trkpt lat="43.8289" lon="5.15841">
        <ele>209</ele>
        <time>2019-09-14T06:56:44Z</time>
      </trkpt>
      <trkpt lat="43.82896" lon="5.15831">
        <ele>208</ele>
        <time>2019-09-14T06:56:52Z</time>
      </trkpt>
      <trkpt lat="43.829" lon="5.15819">
        <ele>207</ele>
        <time>2019-09-14T06:57:02Z</time>
      </trkpt>
      <trkpt lat="43.82903" lon="5.15807">
        <ele>206</ele>
        <time>2019-09-14T06:57:12Z</time>
      </trkpt>
      <trkpt lat="43.82903" lon="5.15794">
        <ele>204</ele>
        <time>2019-09-14T06:57:20Z</time>
      </trkpt>
      <trkpt lat="43.82904" lon="5.15779">
        <ele>205</ele>
        <time>2019-09-14T06:57:30Z</time>
      </trkpt>
      <trkpt lat="43.82907" lon="5.15766">
        <ele>204</ele>
        <time>2019-09-14T06:57:38Z</time>
      </trkpt>
      <trkpt lat="43.82914" lon="5.15757">
        <ele>202</ele>
        <time>2019-09-14T06:57:46Z</time>
      </trkpt>
      <trkpt lat="43.82918" lon="5.15744">
        <ele>201</ele>
        <time>2019-09-14T06:57:56Z</time>
      </trkpt>
      <trkpt lat="43.82919" lon="5.1573">
        <ele>199</ele>
        <time>2019-09-14T06:58:06Z</time>
      </trkpt>
      <trkpt lat="43.82921" lon="5.15717">
        <ele>198</ele>
        <time>2019-09-14T06:58:14Z</time>
      </trkpt>
      <trkpt lat="43.82925" lon="5.15704">
        <ele>195</ele>
        <time>2019-09-14T06:58:30Z</time>
      </trkpt>
      <trkpt lat="43.82921" lon="5.15692">
        <ele>194</ele>
        <time>2019-09-14T06:58:42Z</time>
      </trkpt>
      <trkpt lat="43.82916" lon="5.1568">
        <ele>195</ele>
        <time>2019-09-14T06:58:52Z</time>
      </trkpt>
      <trkpt lat="43.82911" lon="5.15669">
        <ele>194</ele>
        <time>2019-09-14T06:59:02Z</time>
      </trkpt>
      <trkpt lat="43.82901" lon="5.15662">
        <ele>194</ele>
        <time>2019-09-14T06:59:10Z</time>
      </trkpt>
      <trkpt lat="43.8289" lon="5.15657">
        <ele>195</ele>
        <time>2019-09-14T06:59:16Z</time>
      </trkpt>
      <trkpt lat="43.8288" lon="5.15654">
        <ele>195</ele>
        <time>2019-09-14T06:59:24Z</time>
      </trkpt>
      <trkpt lat="43.8287" lon="5.15651">
        <ele>195</ele>
        <time>2019-09-14T06:59:30Z</time>
      </trkpt>
      <trkpt lat="43.82858" lon="5.15644">
        <ele>193</ele>
        <time>2019-09-14T06:59:36Z</time>
      </trkpt>
      <trkpt lat="43.82849" lon="5.15641">
        <ele>192</ele>
        <time>2019-09-14T06:59:42Z</time>
      </trkpt>
      <trkpt lat="43.82855" lon="5.15638">
        <ele>189</ele>
        <time>2019-09-14T07:00:10Z</time>
      </trkpt>
      <trkpt lat="43.8285" lon="5.15648">
        <ele>190</ele>
        <time>2019-09-14T07:00:32Z</time>
      </trkpt>
      <trkpt lat="43.8284" lon="5.15649">
        <ele>188</ele>
        <time>2019-09-14T07:00:39Z</time>
      </trkpt>
      <trkpt lat="43.8283" lon="5.15646">
        <ele>188</ele>
        <time>2019-09-14T07:00:53Z</time>
      </trkpt>
      <trkpt lat="43.82826" lon="5.15636">
        <ele>187</ele>
        <time>2019-09-14T07:01:07Z</time>
      </trkpt>
      <trkpt lat="43.82818" lon="5.15646">
        <ele>188</ele>
        <time>2019-09-14T07:01:31Z</time>
      </trkpt>
      <trkpt lat="43.82804" lon="5.15645">
        <ele>186</ele>
        <time>2019-09-14T07:01:48Z</time>
      </trkpt>
      <trkpt lat="43.82795" lon="5.15649">
        <ele>185</ele>
        <time>2019-09-14T07:01:59Z</time>
      </trkpt>
      <trkpt lat="43.82787" lon="5.15657">
        <ele>185</ele>
        <time>2019-09-14T07:02:14Z</time>
      </trkpt>
      <trkpt lat="43.82777" lon="5.15655">
        <ele>185</ele>
        <time>2019-09-14T07:02:22Z</time>
      </trkpt>
      <trkpt lat="43.82768" lon="5.15655">
        <ele>185</ele>
        <time>2019-09-14T07:02:29Z</time>
      </trkpt>
      <trkpt lat="43.82758" lon="5.15657">
        <ele>185</ele>
        <time>2019-09-14T07:02:39Z</time>
      </trkpt>
      <trkpt lat="43.82749" lon="5.15659">
        <ele>186</ele>
        <time>2019-09-14T07:02:47Z</time>
      </trkpt>
      <trkpt lat="43.8274" lon="5.15661">
        <ele>188</ele>
        <time>2019-09-14T07:02:55Z</time>
      </trkpt>
      <trkpt lat="43.82724" lon="5.15651">
        <ele>192</ele>
        <time>2019-09-14T07:03:27Z</time>
      </trkpt>
      <trkpt lat="43.82714" lon="5.1565">
        <ele>190</ele>
        <time>2019-09-14T07:03:36Z</time>
      </trkpt>
      <trkpt lat="43.82704" lon="5.15646">
        <ele>193</ele>
        <time>2019-09-14T07:03:45Z</time>
      </trkpt>
      <trkpt lat="43.82696" lon="5.15639">
        <ele>193</ele>
        <time>2019-09-14T07:04:01Z</time>
      </trkpt>
      <trkpt lat="43.82689" lon="5.1563">
        <ele>196</ele>
        <time>2019-09-14T07:04:10Z</time>
      </trkpt>
      <trkpt lat="43.8268" lon="5.15626">
        <ele>194</ele>
        <time>2019-09-14T07:04:20Z</time>
      </trkpt>
      <trkpt lat="43.82672" lon="5.15618">
        <ele>196</ele>
        <time>2019-09-14T07:04:28Z</time>
      </trkpt>
      <trkpt lat="43.82663" lon="5.15613">
        <ele>196</ele>
        <time>2019-09-14T07:04:41Z</time>
      </trkpt>
      <trkpt lat="43.82654" lon="5.15609">
        <ele>198</ele>
        <time>2019-09-14T07:05:05Z</time>
      </trkpt>
      <trkpt lat="43.82645" lon="5.15608">
        <ele>198</ele>
        <time>2019-09-14T07:05:11Z</time>
      </trkpt>
      <trkpt lat="43.82636" lon="5.15607">
        <ele>198</ele>
        <time>2019-09-14T07:05:18Z</time>
      </trkpt>
      <trkpt lat="43.8263" lon="5.15616">
        <ele>195</ele>
        <time>2019-09-14T07:05:27Z</time>
      </trkpt>
      <trkpt lat="43.8262" lon="5.15619">
        <ele>196</ele>
        <time>2019-09-14T07:05:38Z</time>
      </trkpt>
      <trkpt lat="43.82611" lon="5.15619">
        <ele>198</ele>
        <time>2019-09-14T07:05:48Z</time>
      </trkpt>
      <trkpt lat="43.82601" lon="5.15619">
        <ele>201</ele>
        <time>2019-09-14T07:05:58Z</time>
      </trkpt>
      <trkpt lat="43.82591" lon="5.15617">
        <ele>207</ele>
        <time>2019-09-14T07:06:11Z</time>
      </trkpt>
      <trkpt lat="43.82582" lon="5.15617">
        <ele>209</ele>
        <time>2019-09-14T07:06:23Z</time>
      </trkpt>
      <trkpt lat="43.82573" lon="5.15616">
        <ele>212</ele>
        <time>2019-09-14T07:06:34Z</time>
      </trkpt>
      <trkpt lat="43.82563" lon="5.15619">
        <ele>212</ele>
        <time>2019-09-14T07:06:42Z</time>
      </trkpt>
      <trkpt lat="43.82554" lon="5.15621">
        <ele>209</ele>
        <time>2019-09-14T07:06:51Z</time>
      </trkpt>
      <trkpt lat="43.82546" lon="5.15625">
        <ele>212</ele>
        <time>2019-09-14T07:07:00Z</time>
      </trkpt>
      <trkpt lat="43.82538" lon="5.15617">
        <ele>219</ele>
        <time>2019-09-14T07:07:15Z</time>
      </trkpt>
      <trkpt lat="43.82531" lon="5.1561">
        <ele>223</ele>
        <time>2019-09-14T07:07:30Z</time>
      </trkpt>
      <trkpt lat="43.82521" lon="5.15606">
        <ele>229</ele>
        <time>2019-09-14T07:07:50Z</time>
      </trkpt>
      <trkpt lat="43.82512" lon="5.15607">
        <ele>234</ele>
        <time>2019-09-14T07:07:59Z</time>
      </trkpt>
      <trkpt lat="43.82503" lon="5.15608">
        <ele>233</ele>
        <time>2019-09-14T07:08:08Z</time>
      </trkpt>
      <trkpt lat="43.82495" lon="5.15599">
        <ele>220</ele>
        <time>2019-09-14T07:08:19Z</time>
      </trkpt>
      <trkpt lat="43.82486" lon="5.15597">
        <ele>231</ele>
        <time>2019-09-14T07:08:26Z</time>
      </trkpt>
      <trkpt lat="43.8248" lon="5.15608">
        <ele>216</ele>
        <time>2019-09-14T07:08:35Z</time>
      </trkpt>
      <trkpt lat="43.82486" lon="5.15597">
        <ele>238</ele>
        <time>2019-09-14T07:08:53Z</time>
      </trkpt>
      <trkpt lat="43.82496" lon="5.15582">
        <ele>224</ele>
        <time>2019-09-14T07:09:10Z</time>
      </trkpt>
      <trkpt lat="43.82494" lon="5.15568">
        <ele>227</ele>
        <time>2019-09-14T07:09:16Z</time>
      </trkpt>
      <trkpt lat="43.82485" lon="5.15572">
        <ele>240</ele>
        <time>2019-09-14T07:09:23Z</time>
      </trkpt>
      <trkpt lat="43.82501" lon="5.15562">
        <ele>223</ele>
        <time>2019-09-14T07:09:34Z</time>
      </trkpt>
      <trkpt lat="43.82508" lon="5.15552">
        <ele>214</ele>
        <time>2019-09-14T07:09:42Z</time>
      </trkpt>
      <trkpt lat="43.82477" lon="5.15545">
        <ele>215</ele>
        <time>2019-09-14T07:09:48Z</time>
      </trkpt>
      <trkpt lat="43.82486" lon="5.15552">
        <ele>231</ele>
        <time>2019-09-14T07:09:56Z</time>
      </trkpt>
      <trkpt lat="43.82499" lon="5.15569">
        <ele>236</ele>
        <time>2019-09-14T07:10:02Z</time>
      </trkpt>
      <trkpt lat="43.82509" lon="5.15576">
        <ele>238</ele>
        <time>2019-09-14T07:10:08Z</time>
      </trkpt>
      <trkpt lat="43.82513" lon="5.15588">
        <ele>240</ele>
        <time>2019-09-14T07:10:24Z</time>
      </trkpt>
      <trkpt lat="43.82497" lon="5.156">
        <ele>237</ele>
        <time>2019-09-14T07:10:30Z</time>
      </trkpt>
      <trkpt lat="43.82488" lon="5.15593">
        <ele>246</ele>
        <time>2019-09-14T07:10:50Z</time>
      </trkpt>
      <trkpt lat="43.82488" lon="5.1558">
        <ele>244</ele>
        <time>2019-09-14T07:11:14Z</time>
      </trkpt>
      <trkpt lat="43.82476" lon="5.15536">
        <ele>242</ele>
        <time>2019-09-14T07:11:27Z</time>
      </trkpt>
      <trkpt lat="43.82485" lon="5.15571">
        <ele>244</ele>
        <time>2019-09-14T07:11:51Z</time>
      </trkpt>
      <trkpt lat="43.82458" lon="5.15562">
        <ele>254</ele>
        <time>2019-09-14T07:12:05Z</time>
      </trkpt>
      <trkpt lat="43.8246" lon="5.15576">
        <ele>255</ele>
        <time>2019-09-14T07:12:11Z</time>
      </trkpt>
      <trkpt lat="43.82459" lon="5.15588">
        <ele>255</ele>
        <time>2019-09-14T07:12:19Z</time>
      </trkpt>
      <trkpt lat="43.8245" lon="5.1559">
        <ele>256</ele>
        <time>2019-09-14T07:12:46Z</time>
      </trkpt>
      <trkpt lat="43.82451" lon="5.15577">
        <ele>252</ele>
        <time>2019-09-14T07:12:56Z</time>
      </trkpt>
      <trkpt lat="43.82442" lon="5.15578">
        <ele>257</ele>
        <time>2019-09-14T07:13:16Z</time>
      </trkpt>
      <trkpt lat="43.82435" lon="5.15569">
        <ele>259</ele>
        <time>2019-09-14T07:13:27Z</time>
      </trkpt>
      <trkpt lat="43.82426" lon="5.15566">
        <ele>259</ele>
        <time>2019-09-14T07:13:50Z</time>
      </trkpt>
      <trkpt lat="43.82416" lon="5.15567">
        <ele>261</ele>
        <time>2019-09-14T07:14:12Z</time>
      </trkpt>
      <trkpt lat="43.82405" lon="5.15566">
        <ele>262</ele>
        <time>2019-09-14T07:14:20Z</time>
      </trkpt>
      <trkpt lat="43.82395" lon="5.15567">
        <ele>264</ele>
        <time>2019-09-14T07:14:28Z</time>
      </trkpt>
      <trkpt lat="43.82387" lon="5.15558">
        <ele>266</ele>
        <time>2019-09-14T07:14:42Z</time>
      </trkpt>
      <trkpt lat="43.82383" lon="5.15547">
        <ele>269</ele>
        <time>2019-09-14T07:15:00Z</time>
      </trkpt>
      <trkpt lat="43.82374" lon="5.15545">
        <ele>273</ele>
        <time>2019-09-14T07:15:14Z</time>
      </trkpt>
      <trkpt lat="43.82366" lon="5.15539">
        <ele>272</ele>
        <time>2019-09-14T07:15:31Z</time>
      </trkpt>
      <trkpt lat="43.82361" lon="5.15528">
        <ele>260</ele>
        <time>2019-09-14T07:15:41Z</time>
      </trkpt>
      <trkpt lat="43.82354" lon="5.15538">
        <ele>265</ele>
        <time>2019-09-14T07:15:52Z</time>
      </trkpt>
      <trkpt lat="43.82347" lon="5.15529">
        <ele>267</ele>
        <time>2019-09-14T07:16:34Z</time>
      </trkpt>
      <trkpt lat="43.82337" lon="5.15529">
        <ele>253</ele>
        <time>2019-09-14T07:16:48Z</time>
      </trkpt>
      <trkpt lat="43.82334" lon="5.15543">
        <ele>251</ele>
        <time>2019-09-14T07:16:56Z</time>
      </trkpt>
      <trkpt lat="43.82332" lon="5.15555">
        <ele>251</ele>
        <time>2019-09-14T07:17:03Z</time>
      </trkpt>
      <trkpt lat="43.82357" lon="5.15598">
        <ele>266</ele>
        <time>2019-09-14T07:17:27Z</time>
      </trkpt>
      <trkpt lat="43.82346" lon="5.15591">
        <ele>269</ele>
        <time>2019-09-14T07:17:35Z</time>
      </trkpt>
      <trkpt lat="43.82325" lon="5.15556">
        <ele>266</ele>
        <time>2019-09-14T07:17:42Z</time>
      </trkpt>
      <trkpt lat="43.82317" lon="5.15566">
        <ele>275</ele>
        <time>2019-09-14T07:18:15Z</time>
      </trkpt>
      <trkpt lat="43.82308" lon="5.15565">
        <ele>265</ele>
        <time>2019-09-14T07:18:30Z</time>
      </trkpt>
      <trkpt lat="43.82306" lon="5.15577">
        <ele>282</ele>
        <time>2019-09-14T07:18:48Z</time>
      </trkpt>
      <trkpt lat="43.82297" lon="5.15582">
        <ele>283</ele>
        <time>2019-09-14T07:19:05Z</time>
      </trkpt>
      <trkpt lat="43.82288" lon="5.15583">
        <ele>283</ele>
        <time>2019-09-14T07:19:26Z</time>
      </trkpt>
      <trkpt lat="43.82286" lon="5.15596">
        <ele>277</ele>
        <time>2019-09-14T07:19:52Z</time>
      </trkpt>
      <trkpt lat="43.82276" lon="5.15598">
        <ele>277</ele>
        <time>2019-09-14T07:20:11Z</time>
      </trkpt>
      <trkpt lat="43.82267" lon="5.15599">
        <ele>279</ele>
        <time>2019-09-14T07:20:36Z</time>
      </trkpt>
      <trkpt lat="43.82264" lon="5.15611">
        <ele>278</ele>
        <time>2019-09-14T07:20:55Z</time>
      </trkpt>
      <trkpt lat="43.82256" lon="5.15617">
        <ele>275</ele>
        <time>2019-09-14T07:21:13Z</time>
      </trkpt>
      <trkpt lat="43.82247" lon="5.15622">
        <ele>281</ele>
        <time>2019-09-14T07:21:29Z</time>
      </trkpt>
      <trkpt lat="43.82241" lon="5.15632">
        <ele>282</ele>
        <time>2019-09-14T07:21:41Z</time>
      </trkpt>
      <trkpt lat="43.82235" lon="5.15641">
        <ele>282</ele>
        <time>2019-09-14T07:21:57Z</time>
      </trkpt>
      <trkpt lat="43.82236" lon="5.15654">
        <ele>283</ele>
        <time>2019-09-14T07:22:42Z</time>
      </trkpt>
      <trkpt lat="43.82236" lon="5.15668">
        <ele>289</ele>
        <time>2019-09-14T07:22:56Z</time>
      </trkpt>
      <trkpt lat="43.82232" lon="5.15679">
        <ele>289</ele>
        <time>2019-09-14T07:23:17Z</time>
      </trkpt>
      <trkpt lat="43.82224" lon="5.15687">
        <ele>290</ele>
        <time>2019-09-14T07:23:33Z</time>
      </trkpt>
      <trkpt lat="43.82219" lon="5.15697">
        <ele>292</ele>
        <time>2019-09-14T07:23:46Z</time>
      </trkpt>
      <trkpt lat="43.82211" lon="5.15702">
        <ele>294</ele>
        <time>2019-09-14T07:24:05Z</time>
      </trkpt>
      <trkpt lat="43.82205" lon="5.15712">
        <ele>294</ele>
        <time>2019-09-14T07:24:28Z</time>
      </trkpt>
      <trkpt lat="43.82199" lon="5.15721">
        <ele>293</ele>
        <time>2019-09-14T07:24:44Z</time>
      </trkpt>
      <trkpt lat="43.82189" lon="5.15724">
        <ele>307</ele>
        <time>2019-09-14T07:25:11Z</time>
      </trkpt>
      <trkpt lat="43.82182" lon="5.15732">
        <ele>318</ele>
        <time>2019-09-14T07:26:21Z</time>
      </trkpt>
      <trkpt lat="43.82175" lon="5.15742">
        <ele>320</ele>
        <time>2019-09-14T07:26:36Z</time>
      </trkpt>
      <trkpt lat="43.82169" lon="5.15752">
        <ele>321</ele>
        <time>2019-09-14T07:26:47Z</time>
      </trkpt>
      <trkpt lat="43.8216" lon="5.15757">
        <ele>322</ele>
        <time>2019-09-14T07:26:57Z</time>
      </trkpt>
      <trkpt lat="43.82152" lon="5.15764">
        <ele>322</ele>
        <time>2019-09-14T07:27:11Z</time>
      </trkpt>
      <trkpt lat="43.82143" lon="5.1577">
        <ele>325</ele>
        <time>2019-09-14T07:27:24Z</time>
      </trkpt>
      <trkpt lat="43.82134" lon="5.15769">
        <ele>324</ele>
        <time>2019-09-14T07:27:30Z</time>
      </trkpt>
      <trkpt lat="43.82125" lon="5.15768">
        <ele>325</ele>
        <time>2019-09-14T07:27:38Z</time>
      </trkpt>
      <trkpt lat="43.82116" lon="5.15763">
        <ele>324</ele>
        <time>2019-09-14T07:27:48Z</time>
      </trkpt>
      <trkpt lat="43.82107" lon="5.1576">
        <ele>324</ele>
        <time>2019-09-14T07:28:02Z</time>
      </trkpt>
      <trkpt lat="43.82098" lon="5.15754">
        <ele>326</ele>
        <time>2019-09-14T07:28:16Z</time>
      </trkpt>
      <trkpt lat="43.82089" lon="5.15754">
        <ele>326</ele>
        <time>2019-09-14T07:28:28Z</time>
      </trkpt>
      <trkpt lat="43.82079" lon="5.15753">
        <ele>328</ele>
        <time>2019-09-14T07:28:42Z</time>
      </trkpt>
      <trkpt lat="43.8207" lon="5.1575">
        <ele>328</ele>
        <time>2019-09-14T07:28:53Z</time>
      </trkpt>
      <trkpt lat="43.82066" lon="5.15739">
        <ele>335</ele>
        <time>2019-09-14T07:29:21Z</time>
      </trkpt>
      <trkpt lat="43.82056" lon="5.15738">
        <ele>336</ele>
        <time>2019-09-14T07:29:51Z</time>
      </trkpt>
      <trkpt lat="43.82048" lon="5.15741">
        <ele>335</ele>
        <time>2019-09-14T07:30:07Z</time>
      </trkpt>
      <trkpt lat="43.82038" lon="5.1574">
        <ele>341</ele>
        <time>2019-09-14T07:30:20Z</time>
      </trkpt>
      <trkpt lat="43.82029" lon="5.1574">
        <ele>342</ele>
        <time>2019-09-14T07:30:32Z</time>
      </trkpt>
      <trkpt lat="43.8202" lon="5.15735">
        <ele>348</ele>
        <time>2019-09-14T07:30:45Z</time>
      </trkpt>
      <trkpt lat="43.82011" lon="5.15735">
        <ele>349</ele>
        <time>2019-09-14T07:31:01Z</time>
      </trkpt>
      <trkpt lat="43.82003" lon="5.1573">
        <ele>352</ele>
        <time>2019-09-14T07:31:11Z</time>
      </trkpt>
      <trkpt lat="43.81993" lon="5.15731">
        <ele>350</ele>
        <time>2019-09-14T07:31:35Z</time>
      </trkpt>
      <trkpt lat="43.81986" lon="5.15723">
        <ele>355</ele>
        <time>2019-09-14T07:31:45Z</time>
      </trkpt>
      <trkpt lat="43.81978" lon="5.1573">
        <ele>356</ele>
        <time>2019-09-14T07:32:21Z</time>
      </trkpt>
      <trkpt lat="43.8197" lon="5.15737">
        <ele>357</ele>
        <time>2019-09-14T07:32:30Z</time>
      </trkpt>
      <trkpt lat="43.81961" lon="5.15737">
        <ele>349</ele>
        <time>2019-09-14T07:32:43Z</time>
      </trkpt>
      <trkpt lat="43.81956" lon="5.15725">
        <ele>362</ele>
        <time>2019-09-14T07:33:19Z</time>
      </trkpt>
      <trkpt lat="43.81947" lon="5.15726">
        <ele>352</ele>
        <time>2019-09-14T07:33:58Z</time>
      </trkpt>
      <trkpt lat="43.8194" lon="5.15734">
        <ele>345</ele>
        <time>2019-09-14T07:34:32Z</time>
      </trkpt>
      <trkpt lat="43.81935" lon="5.15745">
        <ele>344</ele>
        <time>2019-09-14T07:34:44Z</time>
      </trkpt>
      <trkpt lat="43.81926" lon="5.15747">
        <ele>346</ele>
        <time>2019-09-14T07:35:06Z</time>
      </trkpt>
      <trkpt lat="43.81917" lon="5.15754">
        <ele>364</ele>
        <time>2019-09-14T07:35:53Z</time>
      </trkpt>
      <trkpt lat="43.81908" lon="5.15757">
        <ele>365</ele>
        <time>2019-09-14T07:36:26Z</time>
      </trkpt>
      <trkpt lat="43.81898" lon="5.15754">
        <ele>370</ele>
        <time>2019-09-14T07:36:47Z</time>
      </trkpt>
      <trkpt lat="43.81898" lon="5.15767">
        <ele>369</ele>
        <time>2019-09-14T07:37:00Z</time>
      </trkpt>
      <trkpt lat="43.81895" lon="5.15779">
        <ele>364</ele>
        <time>2019-09-14T07:37:13Z</time>
      </trkpt>
      <trkpt lat="43.81886" lon="5.15775">
        <ele>356</ele>
        <time>2019-09-14T07:38:17Z</time>
      </trkpt>
      <trkpt lat="43.81889" lon="5.15788">
        <ele>359</ele>
        <time>2019-09-14T07:38:34Z</time>
      </trkpt>
      <trkpt lat="43.8188" lon="5.15783">
        <ele>362</ele>
        <time>2019-09-14T07:38:50Z</time>
      </trkpt>
      <trkpt lat="43.81872" lon="5.15788">
        <ele>364</ele>
        <time>2019-09-14T07:39:35Z</time>
      </trkpt>
      <trkpt lat="43.81862" lon="5.15787">
        <ele>365</ele>
        <time>2019-09-14T07:39:52Z</time>
      </trkpt>
      <trkpt lat="43.81853" lon="5.1578">
        <ele>365</ele>
        <time>2019-09-14T07:40:00Z</time>
      </trkpt>
      <trkpt lat="43.81846" lon="5.15771">
        <ele>365</ele>
        <time>2019-09-14T07:40:08Z</time>
      </trkpt>
      <trkpt lat="43.81838" lon="5.15767">
        <ele>365</ele>
        <time>2019-09-14T07:40:16Z</time>
      </trkpt>
      <trkpt lat="43.81831" lon="5.15758">
        <ele>400</ele>
        <time>2019-09-14T07:40:27Z</time>
      </trkpt>
      <trkpt lat="43.81822" lon="5.15756">
        <ele>406</ele>
        <time>2019-09-14T07:40:48Z</time>
      </trkpt>
      <trkpt lat="43.81815" lon="5.15748">
        <ele>405</ele>
        <time>2019-09-14T07:41:13Z</time>
      </trkpt>
      <trkpt lat="43.81806" lon="5.15741">
        <ele>406</ele>
        <time>2019-09-14T07:41:27Z</time>
      </trkpt>
      <trkpt lat="43.81798" lon="5.15736">
        <ele>409</ele>
        <time>2019-09-14T07:41:36Z</time>
      </trkpt>
      <trkpt lat="43.8179" lon="5.15728">
        <ele>394</ele>
        <time>2019-09-14T07:41:55Z</time>
      </trkpt>
      <trkpt lat="43.81782" lon="5.15724">
        <ele>409</ele>
        <time>2019-09-14T07:42:10Z</time>
      </trkpt>
      <trkpt lat="43.81774" lon="5.15715">
        <ele>421</ele>
        <time>2019-09-14T07:42:36Z</time>
      </trkpt>
      <trkpt lat="43.81765" lon="5.15712">
        <ele>419</ele>
        <time>2019-09-14T07:42:44Z</time>
      </trkpt>
      <trkpt lat="43.81757" lon="5.15706">
        <ele>418</ele>
        <time>2019-09-14T07:42:54Z</time>
      </trkpt>
      <trkpt lat="43.81754" lon="5.15694">
        <ele>396</ele>
        <time>2019-09-14T07:43:12Z</time>
      </trkpt>
      <trkpt lat="43.81746" lon="5.15689">
        <ele>410</ele>
        <time>2019-09-14T07:43:35Z</time>
      </trkpt>
      <trkpt lat="43.81737" lon="5.1569">
        <ele>407</ele>
        <time>2019-09-14T07:43:53Z</time>
      </trkpt>
      <trkpt lat="43.81728" lon="5.1569">
        <ele>407</ele>
        <time>2019-09-14T07:44:07Z</time>
      </trkpt>
      <trkpt lat="43.8172" lon="5.15683">
        <ele>401</ele>
        <time>2019-09-14T07:44:24Z</time>
      </trkpt>
      <trkpt lat="43.81711" lon="5.15678">
        <ele>410</ele>
        <time>2019-09-14T07:44:35Z</time>
      </trkpt>
      <trkpt lat="43.81708" lon="5.15665">
        <ele>412</ele>
        <time>2019-09-14T07:44:45Z</time>
      </trkpt>
      <trkpt lat="43.81704" lon="5.15654">
        <ele>424</ele>
        <time>2019-09-14T07:44:57Z</time>
      </trkpt>
      <trkpt lat="43.81696" lon="5.15648">
        <ele>414</ele>
        <time>2019-09-14T07:45:10Z</time>
      </trkpt>
      <trkpt lat="43.81688" lon="5.15641">
        <ele>410</ele>
        <time>2019-09-14T07:45:26Z</time>
      </trkpt>
      <trkpt lat="43.81679" lon="5.1564">
        <ele>415</ele>
        <time>2019-09-14T07:45:41Z</time>
      </trkpt>
      <trkpt lat="43.81676" lon="5.15628">
        <ele>431</ele>
        <time>2019-09-14T07:45:55Z</time>
      </trkpt>
      <trkpt lat="43.81667" lon="5.15622">
        <ele>413</ele>
        <time>2019-09-14T07:46:07Z</time>
      </trkpt>
      <trkpt lat="43.81659" lon="5.15617">
        <ele>413</ele>
        <time>2019-09-14T07:46:20Z</time>
      </trkpt>
      <trkpt lat="43.81653" lon="5.15607">
        <ele>416</ele>
        <time>2019-09-14T07:46:38Z</time>
      </trkpt>
      <trkpt lat="43.81649" lon="5.15595">
        <ele>426</ele>
        <time>2019-09-14T07:46:56Z</time>
      </trkpt>
      <trkpt lat="43.81649" lon="5.15583">
        <ele>433</ele>
        <time>2019-09-14T07:47:10Z</time>
      </trkpt>
      <trkpt lat="43.81655" lon="5.15572">
        <ele>437</ele>
        <time>2019-09-14T07:47:37Z</time>
      </trkpt>
      <trkpt lat="43.81656" lon="5.15547">
        <ele>442</ele>
        <time>2019-09-14T07:48:28Z</time>
      </trkpt>
      <trkpt lat="43.81661" lon="5.15534">
        <ele>444</ele>
        <time>2019-09-14T07:49:03Z</time>
      </trkpt>
      <trkpt lat="43.81664" lon="5.15522">
        <ele>433</ele>
        <time>2019-09-14T07:50:20Z</time>
      </trkpt>
      <trkpt lat="43.81661" lon="5.1551">
        <ele>438</ele>
        <time>2019-09-14T07:50:48Z</time>
      </trkpt>
      <trkpt lat="43.81654" lon="5.15502">
        <ele>455</ele>
        <time>2019-09-14T07:51:13Z</time>
      </trkpt>
      <trkpt lat="43.81648" lon="5.15492">
        <ele>466</ele>
        <time>2019-09-14T07:51:43Z</time>
      </trkpt>
      <trkpt lat="43.81647" lon="5.15479">
        <ele>467</ele>
        <time>2019-09-14T07:52:18Z</time>
      </trkpt>
      <trkpt lat="43.81641" lon="5.15469">
        <ele>469</ele>
        <time>2019-09-14T07:53:21Z</time>
      </trkpt>
      <trkpt lat="43.81644" lon="5.15481">
        <ele>465</ele>
        <time>2019-09-14T07:53:44Z</time>
      </trkpt>
      <trkpt lat="43.81643" lon="5.15494">
        <ele>467</ele>
        <time>2019-09-14T07:54:27Z</time>
      </trkpt>
      <trkpt lat="43.81641" lon="5.15506">
        <ele>466</ele>
        <time>2019-09-14T07:54:43Z</time>
      </trkpt>
      <trkpt lat="43.81641" lon="5.15519">
        <ele>467</ele>
        <time>2019-09-14T07:55:01Z</time>
      </trkpt>
      <trkpt lat="43.81645" lon="5.15531">
        <ele>464</ele>
        <time>2019-09-14T07:55:15Z</time>
      </trkpt>
      <trkpt lat="43.81636" lon="5.15537">
        <ele>465</ele>
        <time>2019-09-14T07:55:37Z</time>
      </trkpt>
      <trkpt lat="43.81633" lon="5.1555">
        <ele>464</ele>
        <time>2019-09-14T07:55:53Z</time>
      </trkpt>
      <trkpt lat="43.81626" lon="5.15557">
        <ele>466</ele>
        <time>2019-09-14T07:56:17Z</time>
      </trkpt>
      <trkpt lat="43.81623" lon="5.15569">
        <ele>465</ele>
        <time>2019-09-14T07:56:44Z</time>
      </trkpt>
      <trkpt lat="43.81615" lon="5.15575">
        <ele>466</ele>
        <time>2019-09-14T07:57:11Z</time>
      </trkpt>
      <trkpt lat="43.81607" lon="5.15582">
        <ele>468</ele>
        <time>2019-09-14T07:57:39Z</time>
      </trkpt>
      <trkpt lat="43.81597" lon="5.15584">
        <ele>466</ele>
        <time>2019-09-14T07:57:53Z</time>
      </trkpt>
      <trkpt lat="43.81591" lon="5.15593">
        <ele>468</ele>
        <time>2019-09-14T07:58:12Z</time>
      </trkpt>
      <trkpt lat="43.81598" lon="5.15602">
        <ele>471</ele>
        <time>2019-09-14T07:58:45Z</time>
      </trkpt>
      <trkpt lat="43.81599" lon="5.15615">
        <ele>476</ele>
        <time>2019-09-14T07:59:30Z</time>
      </trkpt>
      <trkpt lat="43.81592" lon="5.15624">
        <ele>481</ele>
        <time>2019-09-14T08:00:18Z</time>
      </trkpt>
      <trkpt lat="43.81592" lon="5.15637">
        <ele>486</ele>
        <time>2019-09-14T08:02:07Z</time>
      </trkpt>
      <trkpt lat="43.81588" lon="5.15649">
        <ele>492</ele>
        <time>2019-09-14T08:02:54Z</time>
      </trkpt>
      <trkpt lat="43.81583" lon="5.15659">
        <ele>500</ele>
        <time>2019-09-14T08:03:44Z</time>
      </trkpt>
      <trkpt lat="43.81579" lon="5.15671">
        <ele>503</ele>
        <time>2019-09-14T08:04:08Z</time>
      </trkpt>
      <trkpt lat="43.81579" lon="5.15683">
        <ele>508</ele>
        <time>2019-09-14T08:04:37Z</time>
      </trkpt>
      <trkpt lat="43.81585" lon="5.15692">
        <ele>514</ele>
        <time>2019-09-14T08:05:09Z</time>
      </trkpt>
      <trkpt lat="43.81591" lon="5.15702">
        <ele>516</ele>
        <time>2019-09-14T08:05:40Z</time>
      </trkpt>
      <trkpt lat="43.81591" lon="5.15714">
        <ele>520</ele>
        <time>2019-09-14T08:06:15Z</time>
      </trkpt>
      <trkpt lat="43.81587" lon="5.15726">
        <ele>525</ele>
        <time>2019-09-14T08:06:48Z</time>
      </trkpt>
      <trkpt lat="43.8158" lon="5.15734">
        <ele>528</ele>
        <time>2019-09-14T08:07:23Z</time>
      </trkpt>
      <trkpt lat="43.81587" lon="5.15744">
        <ele>533</ele>
        <time>2019-09-14T08:08:00Z</time>
      </trkpt>
      <trkpt lat="43.81587" lon="5.15756">
        <ele>537</ele>
        <time>2019-09-14T08:08:17Z</time>
      </trkpt>
      <trkpt lat="43.81586" lon="5.1577">
        <ele>542</ele>
        <time>2019-09-14T08:08:45Z</time>
      </trkpt>
      <trkpt lat="43.81582" lon="5.15781">
        <ele>546</ele>
        <time>2019-09-14T08:09:13Z</time>
      </trkpt>
      <trkpt lat="43.81587" lon="5.15793">
        <ele>549</ele>
        <time>2019-09-14T08:10:01Z</time>
      </trkpt>
      <trkpt lat="43.81583" lon="5.15804">
        <ele>552</ele>
        <time>2019-09-14T08:10:22Z</time>
      </trkpt>
      <trkpt lat="43.81585" lon="5.15816">
        <ele>557</ele>
        <time>2019-09-14T08:10:47Z</time>
      </trkpt>
      <trkpt lat="43.81576" lon="5.15836">
        <ele>562</ele>
        <time>2019-09-14T08:11:33Z</time>
      </trkpt>
      <trkpt lat="43.81571" lon="5.15847">
        <ele>564</ele>
        <time>2019-09-14T08:11:58Z</time>
      </trkpt>
      <trkpt lat="43.81572" lon="5.1586">
        <ele>574</ele>
        <time>2019-09-14T08:12:45Z</time>
      </trkpt>
      <trkpt lat="43.81573" lon="5.15872">
        <ele>579</ele>
        <time>2019-09-14T08:13:21Z</time>
      </trkpt>
      <trkpt lat="43.81568" lon="5.15882">
        <ele>585</ele>
        <time>2019-09-14T08:14:14Z</time>
      </trkpt>
      <trkpt lat="43.8156" lon="5.15889">
        <ele>588</ele>
        <time>2019-09-14T08:14:32Z</time>
      </trkpt>
      <trkpt lat="43.81551" lon="5.15893">
        <ele>592</ele>
        <time>2019-09-14T08:15:05Z</time>
      </trkpt>
      <trkpt lat="43.81543" lon="5.159">
        <ele>593</ele>
        <time>2019-09-14T08:15:25Z</time>
      </trkpt>
      <trkpt lat="43.81534" lon="5.15904">
        <ele>594</ele>
        <time>2019-09-14T08:15:37Z</time>
      </trkpt>
      <trkpt lat="43.81526" lon="5.15901">
        <ele>595</ele>
        <time>2019-09-14T08:15:49Z</time>
      </trkpt>
      <trkpt lat="43.81517" lon="5.15905">
        <ele>595</ele>
        <time>2019-09-14T08:16:01Z</time>
      </trkpt>
      <trkpt lat="43.81512" lon="5.15916">
        <ele>596</ele>
        <time>2019-09-14T08:16:18Z</time>
      </trkpt>
      <trkpt lat="43.81507" lon="5.15926">
        <ele>596</ele>
        <time>2019-09-14T08:16:30Z</time>
      </trkpt>
      <trkpt lat="43.81501" lon="5.15936">
        <ele>598</ele>
        <time>2019-09-14T08:16:46Z</time>
      </trkpt>
      <trkpt lat="43.81491" lon="5.15936">
        <ele>600</ele>
        <time>2019-09-14T08:16:59Z</time>
      </trkpt>
      <trkpt lat="43.81482" lon="5.15937">
        <ele>602</ele>
        <time>2019-09-14T08:17:16Z</time>
      </trkpt>
      <trkpt lat="43.81473" lon="5.15942">
        <ele>604</ele>
        <time>2019-09-14T08:17:30Z</time>
      </trkpt>
      <trkpt lat="43.81466" lon="5.1595">
        <ele>605</ele>
        <time>2019-09-14T08:17:45Z</time>
      </trkpt>
      <trkpt lat="43.81457" lon="5.15951">
        <ele>607</ele>
        <time>2019-09-14T08:18:00Z</time>
      </trkpt>
      <trkpt lat="43.81448" lon="5.15948">
        <ele>608</ele>
        <time>2019-09-14T08:18:16Z</time>
      </trkpt>
      <trkpt lat="43.81439" lon="5.15948">
        <ele>609</ele>
        <time>2019-09-14T08:18:30Z</time>
      </trkpt>
      <trkpt lat="43.8143" lon="5.15953">
        <ele>610</ele>
        <time>2019-09-14T08:18:44Z</time>
      </trkpt>
      <trkpt lat="43.81423" lon="5.15962">
        <ele>612</ele>
        <time>2019-09-14T08:19:01Z</time>
      </trkpt>
      <trkpt lat="43.81416" lon="5.15971">
        <ele>613</ele>
        <time>2019-09-14T08:19:13Z</time>
      </trkpt>
      <trkpt lat="43.81407" lon="5.15974">
        <ele>614</ele>
        <time>2019-09-14T08:19:24Z</time>
      </trkpt>
      <trkpt lat="43.81398" lon="5.15978">
        <ele>615</ele>
        <time>2019-09-14T08:19:35Z</time>
      </trkpt>
      <trkpt lat="43.81388" lon="5.15981">
        <ele>616</ele>
        <time>2019-09-14T08:19:55Z</time>
      </trkpt>
      <trkpt lat="43.8138" lon="5.15985">
        <ele>616</ele>
        <time>2019-09-14T08:20:05Z</time>
      </trkpt>
      <trkpt lat="43.8137" lon="5.15989">
        <ele>617</ele>
        <time>2019-09-14T08:20:16Z</time>
      </trkpt>
      <trkpt lat="43.81361" lon="5.1599">
        <ele>617</ele>
        <time>2019-09-14T08:20:27Z</time>
      </trkpt>
      <trkpt lat="43.81352" lon="5.15996">
        <ele>617</ele>
        <time>2019-09-14T08:20:40Z</time>
      </trkpt>
      <trkpt lat="43.81345" lon="5.16005">
        <ele>617</ele>
        <time>2019-09-14T08:20:54Z</time>
      </trkpt>
      <trkpt lat="43.81337" lon="5.16011">
        <ele>617</ele>
        <time>2019-09-14T08:21:04Z</time>
      </trkpt>
      <trkpt lat="43.81331" lon="5.16022">
        <ele>617</ele>
        <time>2019-09-14T08:21:14Z</time>
      </trkpt>
      <trkpt lat="43.81323" lon="5.16026">
        <ele>617</ele>
        <time>2019-09-14T08:21:41Z</time>
      </trkpt>
      <trkpt lat="43.81315" lon="5.16034">
        <ele>616</ele>
        <time>2019-09-14T08:21:53Z</time>
      </trkpt>
      <trkpt lat="43.81307" lon="5.1604">
        <ele>617</ele>
        <time>2019-09-14T08:22:03Z</time>
      </trkpt>
      <trkpt lat="43.813" lon="5.16048">
        <ele>617</ele>
        <time>2019-09-14T08:22:12Z</time>
      </trkpt>
      <trkpt lat="43.8129" lon="5.16049">
        <ele>617</ele>
        <time>2019-09-14T08:22:24Z</time>
      </trkpt>
      <trkpt lat="43.81282" lon="5.16055">
        <ele>617</ele>
        <time>2019-09-14T08:22:36Z</time>
      </trkpt>
      <trkpt lat="43.81273" lon="5.16052">
        <ele>617</ele>
        <time>2019-09-14T08:22:47Z</time>
      </trkpt>
      <trkpt lat="43.81264" lon="5.16055">
        <ele>618</ele>
        <time>2019-09-14T08:22:58Z</time>
      </trkpt>
      <trkpt lat="43.81256" lon="5.1606">
        <ele>619</ele>
        <time>2019-09-14T08:23:11Z</time>
      </trkpt>
      <trkpt lat="43.81246" lon="5.16061">
        <ele>619</ele>
        <time>2019-09-14T08:23:24Z</time>
      </trkpt>
      <trkpt lat="43.81238" lon="5.16065">
        <ele>620</ele>
        <time>2019-09-14T08:23:35Z</time>
      </trkpt>
      <trkpt lat="43.81228" lon="5.16064">
        <ele>623</ele>
        <time>2019-09-14T08:23:56Z</time>
      </trkpt>
      <trkpt lat="43.81219" lon="5.16068">
        <ele>625</ele>
        <time>2019-09-14T08:24:16Z</time>
      </trkpt>
      <trkpt lat="43.8121" lon="5.1607">
        <ele>626</ele>
        <time>2019-09-14T08:24:32Z</time>
      </trkpt>
      <trkpt lat="43.81202" lon="5.16077">
        <ele>628</ele>
        <time>2019-09-14T08:24:49Z</time>
      </trkpt>
      <trkpt lat="43.81194" lon="5.16081">
        <ele>629</ele>
        <time>2019-09-14T08:25:06Z</time>
      </trkpt>
      <trkpt lat="43.81185" lon="5.16084">
        <ele>630</ele>
        <time>2019-09-14T08:25:20Z</time>
      </trkpt>
      <trkpt lat="43.81176" lon="5.16083">
        <ele>631</ele>
        <time>2019-09-14T08:25:40Z</time>
      </trkpt>
      <trkpt lat="43.81167" lon="5.1608">
        <ele>633</ele>
        <time>2019-09-14T08:25:58Z</time>
      </trkpt>
      <trkpt lat="43.81158" lon="5.16077">
        <ele>635</ele>
        <time>2019-09-14T08:26:16Z</time>
      </trkpt>
      <trkpt lat="43.81149" lon="5.16081">
        <ele>636</ele>
        <time>2019-09-14T08:26:49Z</time>
      </trkpt>
      <trkpt lat="43.81144" lon="5.16092">
        <ele>637</ele>
        <time>2019-09-14T08:27:00Z</time>
      </trkpt>
      <trkpt lat="43.81139" lon="5.16103">
        <ele>638</ele>
        <time>2019-09-14T08:27:11Z</time>
      </trkpt>
      <trkpt lat="43.81133" lon="5.16112">
        <ele>638</ele>
        <time>2019-09-14T08:27:23Z</time>
      </trkpt>
      <trkpt lat="43.81125" lon="5.16119">
        <ele>638</ele>
        <time>2019-09-14T08:27:33Z</time>
      </trkpt>
      <trkpt lat="43.81118" lon="5.16128">
        <ele>637</ele>
        <time>2019-09-14T08:27:44Z</time>
      </trkpt>
      <trkpt lat="43.8111" lon="5.16135">
        <ele>638</ele>
        <time>2019-09-14T08:27:55Z</time>
      </trkpt>
      <trkpt lat="43.81104" lon="5.16145">
        <ele>637</ele>
        <time>2019-09-14T08:28:07Z</time>
      </trkpt>
      <trkpt lat="43.81096" lon="5.16153">
        <ele>637</ele>
        <time>2019-09-14T08:28:20Z</time>
      </trkpt>
      <trkpt lat="43.81088" lon="5.16159">
        <ele>637</ele>
        <time>2019-09-14T08:28:31Z</time>
      </trkpt>
      <trkpt lat="43.8108" lon="5.16167">
        <ele>637</ele>
        <time>2019-09-14T08:28:43Z</time>
      </trkpt>
      <trkpt lat="43.81071" lon="5.16171">
        <ele>638</ele>
        <time>2019-09-14T08:28:54Z</time>
      </trkpt>
      <trkpt lat="43.81063" lon="5.16177">
        <ele>639</ele>
        <time>2019-09-14T08:29:06Z</time>
      </trkpt>
      <trkpt lat="43.81054" lon="5.16179">
        <ele>640</ele>
        <time>2019-09-14T08:29:18Z</time>
      </trkpt>
      <trkpt lat="43.81045" lon="5.1618">
        <ele>640</ele>
        <time>2019-09-14T08:29:30Z</time>
      </trkpt>
      <trkpt lat="43.81037" lon="5.16188">
        <ele>642</ele>
        <time>2019-09-14T08:29:48Z</time>
      </trkpt>
      <trkpt lat="43.8103" lon="5.16195">
        <ele>644</ele>
        <time>2019-09-14T08:30:04Z</time>
      </trkpt>
      <trkpt lat="43.81021" lon="5.16201">
        <ele>645</ele>
        <time>2019-09-14T08:30:18Z</time>
      </trkpt>
      <trkpt lat="43.81013" lon="5.16207">
        <ele>646</ele>
        <time>2019-09-14T08:30:34Z</time>
      </trkpt>
      <trkpt lat="43.81005" lon="5.16214">
        <ele>649</ele>
        <time>2019-09-14T08:30:51Z</time>
      </trkpt>
      <trkpt lat="43.80997" lon="5.1622">
        <ele>651</ele>
        <time>2019-09-14T08:31:11Z</time>
      </trkpt>
      <trkpt lat="43.8099" lon="5.1623">
        <ele>652</ele>
        <time>2019-09-14T08:31:24Z</time>
      </trkpt>
      <trkpt lat="43.80981" lon="5.16232">
        <ele>653</ele>
        <time>2019-09-14T08:31:37Z</time>
      </trkpt>
      <trkpt lat="43.80972" lon="5.16237">
        <ele>654</ele>
        <time>2019-09-14T08:31:50Z</time>
      </trkpt>
      <trkpt lat="43.80964" lon="5.16241">
        <ele>655</ele>
        <time>2019-09-14T08:32:04Z</time>
      </trkpt>
      <trkpt lat="43.80955" lon="5.16243">
        <ele>656</ele>
        <time>2019-09-14T08:32:20Z</time>
      </trkpt>
      <trkpt lat="43.80946" lon="5.16245">
        <ele>658</ele>
        <time>2019-09-14T08:32:33Z</time>
      </trkpt>
      <trkpt lat="43.80938" lon="5.16252">
        <ele>659</ele>
        <time>2019-09-14T08:32:51Z</time>
      </trkpt>
      <trkpt lat="43.80929" lon="5.16251">
        <ele>660</ele>
        <time>2019-09-14T08:33:12Z</time>
      </trkpt>
      <trkpt lat="43.80923" lon="5.16261">
        <ele>661</ele>
        <time>2019-09-14T08:33:24Z</time>
      </trkpt>
      <trkpt lat="43.80915" lon="5.16268">
        <ele>662</ele>
        <time>2019-09-14T08:33:37Z</time>
      </trkpt>
      <trkpt lat="43.80906" lon="5.16268">
        <ele>663</ele>
        <time>2019-09-14T08:33:51Z</time>
      </trkpt>
      <trkpt lat="43.80896" lon="5.16271">
        <ele>665</ele>
        <time>2019-09-14T08:34:15Z</time>
      </trkpt>
      <trkpt lat="43.80887" lon="5.16273">
        <ele>667</ele>
        <time>2019-09-14T08:34:30Z</time>
      </trkpt>
      <trkpt lat="43.80878" lon="5.16275">
        <ele>667</ele>
        <time>2019-09-14T08:34:42Z</time>
      </trkpt>
      <trkpt lat="43.8087" lon="5.16281">
        <ele>668</ele>
        <time>2019-09-14T08:34:53Z</time>
      </trkpt>
      <trkpt lat="43.80862" lon="5.16289">
        <ele>670</ele>
        <time>2019-09-14T08:35:17Z</time>
      </trkpt>
      <trkpt lat="43.80855" lon="5.16297">
        <ele>671</ele>
        <time>2019-09-14T08:35:31Z</time>
      </trkpt>
      <trkpt lat="43.80846" lon="5.16301">
        <ele>674</ele>
        <time>2019-09-14T08:35:44Z</time>
      </trkpt>
      <trkpt lat="43.80837" lon="5.16305">
        <ele>676</ele>
        <time>2019-09-14T08:35:58Z</time>
      </trkpt>
      <trkpt lat="43.80828" lon="5.1631">
        <ele>677</ele>
        <time>2019-09-14T08:36:10Z</time>
      </trkpt>
      <trkpt lat="43.80823" lon="5.1632">
        <ele>679</ele>
        <time>2019-09-14T08:36:25Z</time>
      </trkpt>
      <trkpt lat="43.80818" lon="5.16331">
        <ele>681</ele>
        <time>2019-09-14T08:36:46Z</time>
      </trkpt>
      <trkpt lat="43.80813" lon="5.16341">
        <ele>683</ele>
        <time>2019-09-14T08:37:00Z</time>
      </trkpt>
      <trkpt lat="43.80807" lon="5.16351">
        <ele>685</ele>
        <time>2019-09-14T08:37:42Z</time>
      </trkpt>
      <trkpt lat="43.80799" lon="5.16358">
        <ele>687</ele>
        <time>2019-09-14T08:37:53Z</time>
      </trkpt>
      <trkpt lat="43.80791" lon="5.16364">
        <ele>688</ele>
        <time>2019-09-14T08:38:07Z</time>
      </trkpt>
      <trkpt lat="43.80783" lon="5.16367">
        <ele>689</ele>
        <time>2019-09-14T08:38:18Z</time>
      </trkpt>
      <trkpt lat="43.80775" lon="5.16374">
        <ele>690</ele>
        <time>2019-09-14T08:38:29Z</time>
      </trkpt>
      <trkpt lat="43.80766" lon="5.16378">
        <ele>690</ele>
        <time>2019-09-14T08:38:40Z</time>
      </trkpt>
      <trkpt lat="43.80758" lon="5.16381">
        <ele>691</ele>
        <time>2019-09-14T08:38:51Z</time>
      </trkpt>
      <trkpt lat="43.80749" lon="5.16384">
        <ele>692</ele>
        <time>2019-09-14T08:39:03Z</time>
      </trkpt>
      <trkpt lat="43.8074" lon="5.16387">
        <ele>693</ele>
        <time>2019-09-14T08:39:15Z</time>
      </trkpt>
      <trkpt lat="43.80731" lon="5.16386">
        <ele>694</ele>
        <time>2019-09-14T08:39:27Z</time>
      </trkpt>
      <trkpt lat="43.80722" lon="5.1639">
        <ele>695</ele>
        <time>2019-09-14T08:39:37Z</time>
      </trkpt>
      <trkpt lat="43.80712" lon="5.16389">
        <ele>695</ele>
        <time>2019-09-14T08:39:48Z</time>
      </trkpt>
      <trkpt lat="43.80703" lon="5.16394">
        <ele>694</ele>
        <time>2019-09-14T08:40:00Z</time>
      </trkpt>
      <trkpt lat="43.80694" lon="5.16396">
        <ele>694</ele>
        <time>2019-09-14T08:40:11Z</time>
      </trkpt>
      <trkpt lat="43.80686" lon="5.16402">
        <ele>694</ele>
        <time>2019-09-14T08:40:22Z</time>
      </trkpt>
      <trkpt lat="43.80677" lon="5.16407">
        <ele>694</ele>
        <time>2019-09-14T08:40:34Z</time>
      </trkpt>
      <trkpt lat="43.80671" lon="5.16417">
        <ele>694</ele>
        <time>2019-09-14T08:40:46Z</time>
      </trkpt>
      <trkpt lat="43.80663" lon="5.16422">
        <ele>694</ele>
        <time>2019-09-14T08:40:59Z</time>
      </trkpt>
      <trkpt lat="43.80656" lon="5.16432">
        <ele>694</ele>
        <time>2019-09-14T08:41:23Z</time>
      </trkpt>
      <trkpt lat="43.80662" lon="5.16445">
        <ele>694</ele>
        <time>2019-09-14T08:42:25Z</time>
      </trkpt>
      <trkpt lat="43.80663" lon="5.16462">
        <ele>695</ele>
        <time>2019-09-14T08:42:38Z</time>
      </trkpt>
      <trkpt lat="43.80663" lon="5.16475">
        <ele>693</ele>
        <time>2019-09-14T08:42:47Z</time>
      </trkpt>
      <trkpt lat="43.80663" lon="5.16488">
        <ele>693</ele>
        <time>2019-09-14T08:42:56Z</time>
      </trkpt>
      <trkpt lat="43.80665" lon="5.16501">
        <ele>694</ele>
        <time>2019-09-14T08:43:04Z</time>
      </trkpt>
      <trkpt lat="43.80666" lon="5.16514">
        <ele>694</ele>
        <time>2019-09-14T08:43:12Z</time>
      </trkpt>
      <trkpt lat="43.80667" lon="5.16526">
        <ele>694</ele>
        <time>2019-09-14T08:43:20Z</time>
      </trkpt>
      <trkpt lat="43.80669" lon="5.16539">
        <ele>695</ele>
        <time>2019-09-14T08:43:28Z</time>
      </trkpt>
      <trkpt lat="43.8067" lon="5.16552">
        <ele>695</ele>
        <time>2019-09-14T08:43:36Z</time>
      </trkpt>
      <trkpt lat="43.80671" lon="5.16565">
        <ele>695</ele>
        <time>2019-09-14T08:43:45Z</time>
      </trkpt>
      <trkpt lat="43.80671" lon="5.16578">
        <ele>695</ele>
        <time>2019-09-14T08:43:53Z</time>
      </trkpt>
      <trkpt lat="43.80673" lon="5.16591">
        <ele>695</ele>
        <time>2019-09-14T08:44:01Z</time>
      </trkpt>
      <trkpt lat="43.80675" lon="5.16604">
        <ele>695</ele>
        <time>2019-09-14T08:44:09Z</time>
      </trkpt>
      <trkpt lat="43.80677" lon="5.16629">
        <ele>696</ele>
        <time>2019-09-14T08:44:24Z</time>
      </trkpt>
      <trkpt lat="43.80678" lon="5.16642">
        <ele>696</ele>
        <time>2019-09-14T08:44:32Z</time>
      </trkpt>
      <trkpt lat="43.8068" lon="5.16656">
        <ele>697</ele>
        <time>2019-09-14T08:44:40Z</time>
      </trkpt>
      <trkpt lat="43.80681" lon="5.16669">
        <ele>698</ele>
        <time>2019-09-14T08:44:48Z</time>
      </trkpt>
      <trkpt lat="43.80683" lon="5.16683">
        <ele>698</ele>
        <time>2019-09-14T08:44:57Z</time>
      </trkpt>
      <trkpt lat="43.80684" lon="5.16696">
        <ele>699</ele>
        <time>2019-09-14T08:45:06Z</time>
      </trkpt>
      <trkpt lat="43.80685" lon="5.1671">
        <ele>700</ele>
        <time>2019-09-14T08:45:16Z</time>
      </trkpt>
      <trkpt lat="43.80685" lon="5.16724">
        <ele>700</ele>
        <time>2019-09-14T08:45:25Z</time>
      </trkpt>
      <trkpt lat="43.80684" lon="5.16738">
        <ele>700</ele>
        <time>2019-09-14T08:45:34Z</time>
      </trkpt>
      <trkpt lat="43.80682" lon="5.16751">
        <ele>700</ele>
        <time>2019-09-14T08:45:43Z</time>
      </trkpt>
      <trkpt lat="43.80681" lon="5.16765">
        <ele>701</ele>
        <time>2019-09-14T08:45:54Z</time>
      </trkpt>
      <trkpt lat="43.8068" lon="5.16777">
        <ele>700</ele>
        <time>2019-09-14T08:46:23Z</time>
      </trkpt>
      <trkpt lat="43.80676" lon="5.1679">
        <ele>701</ele>
        <time>2019-09-14T08:46:32Z</time>
      </trkpt>
      <trkpt lat="43.80674" lon="5.16803">
        <ele>701</ele>
        <time>2019-09-14T08:46:41Z</time>
      </trkpt>
      <trkpt lat="43.80673" lon="5.16816">
        <ele>701</ele>
        <time>2019-09-14T08:46:52Z</time>
      </trkpt>
      <trkpt lat="43.80668" lon="5.16826">
        <ele>702</ele>
        <time>2019-09-14T08:47:07Z</time>
      </trkpt>
      <trkpt lat="43.80657" lon="5.16829">
        <ele>701</ele>
        <time>2019-09-14T08:47:41Z</time>
      </trkpt>
      <trkpt lat="43.80646" lon="5.16823">
        <ele>702</ele>
        <time>2019-09-14T08:47:51Z</time>
      </trkpt>
      <trkpt lat="43.80657" lon="5.16828">
        <ele>702</ele>
        <time>2019-09-14T08:48:07Z</time>
      </trkpt>
      <trkpt lat="43.8066" lon="5.16842">
        <ele>702</ele>
        <time>2019-09-14T08:48:17Z</time>
      </trkpt>
      <trkpt lat="43.80656" lon="5.16853">
        <ele>702</ele>
        <time>2019-09-14T08:48:25Z</time>
      </trkpt>
      <trkpt lat="43.80648" lon="5.16866">
        <ele>702</ele>
        <time>2019-09-14T08:48:48Z</time>
      </trkpt>
      <trkpt lat="43.80649" lon="5.16878">
        <ele>702</ele>
        <time>2019-09-14T08:53:36Z</time>
      </trkpt>
      <trkpt lat="43.80646" lon="5.16891">
        <ele>702</ele>
        <time>2019-09-14T08:53:46Z</time>
      </trkpt>
      <trkpt lat="43.80645" lon="5.16903">
        <ele>703</ele>
        <time>2019-09-14T08:53:54Z</time>
      </trkpt>
      <trkpt lat="43.80641" lon="5.16916">
        <ele>704</ele>
        <time>2019-09-14T08:54:02Z</time>
      </trkpt>
      <trkpt lat="43.80638" lon="5.16928">
        <ele>703</ele>
        <time>2019-09-14T08:54:14Z</time>
      </trkpt>
      <trkpt lat="43.80633" lon="5.1694">
        <ele>704</ele>
        <time>2019-09-14T08:54:24Z</time>
      </trkpt>
      <trkpt lat="43.80631" lon="5.16952">
        <ele>704</ele>
        <time>2019-09-14T08:54:33Z</time>
      </trkpt>
      <trkpt lat="43.80628" lon="5.16965">
        <ele>704</ele>
        <time>2019-09-14T08:54:40Z</time>
      </trkpt>
      <trkpt lat="43.80626" lon="5.16977">
        <ele>704</ele>
        <time>2019-09-14T08:54:48Z</time>
      </trkpt>
      <trkpt lat="43.80623" lon="5.1699">
        <ele>705</ele>
        <time>2019-09-14T08:54:56Z</time>
      </trkpt>
      <trkpt lat="43.80619" lon="5.17002">
        <ele>705</ele>
        <time>2019-09-14T08:55:04Z</time>
      </trkpt>
      <trkpt lat="43.80615" lon="5.17014">
        <ele>705</ele>
        <time>2019-09-14T08:55:13Z</time>
      </trkpt>
      <trkpt lat="43.80609" lon="5.17024">
        <ele>705</ele>
        <time>2019-09-14T08:55:18Z</time>
      </trkpt>
      <trkpt lat="43.80609" lon="5.17037">
        <ele>706</ele>
        <time>2019-09-14T08:55:28Z</time>
      </trkpt>
      <trkpt lat="43.80607" lon="5.17051">
        <ele>706</ele>
        <time>2019-09-14T08:55:37Z</time>
      </trkpt>
      <trkpt lat="43.80605" lon="5.17064">
        <ele>706</ele>
        <time>2019-09-14T08:55:46Z</time>
      </trkpt>
      <trkpt lat="43.80605" lon="5.17078">
        <ele>706</ele>
        <time>2019-09-14T08:55:52Z</time>
      </trkpt>
      <trkpt lat="43.806" lon="5.17089">
        <ele>705</ele>
        <time>2019-09-14T08:56:01Z</time>
      </trkpt>
      <trkpt lat="43.80601" lon="5.17103">
        <ele>706</ele>
        <time>2019-09-14T08:56:10Z</time>
      </trkpt>
      <trkpt lat="43.806" lon="5.17116">
        <ele>707</ele>
        <time>2019-09-14T08:56:22Z</time>
      </trkpt>
      <trkpt lat="43.80601" lon="5.17129">
        <ele>706</ele>
        <time>2019-09-14T08:56:32Z</time>
      </trkpt>
      <trkpt lat="43.80604" lon="5.17141">
        <ele>707</ele>
        <time>2019-09-14T08:56:39Z</time>
      </trkpt>
      <trkpt lat="43.80605" lon="5.17154">
        <ele>707</ele>
        <time>2019-09-14T08:56:47Z</time>
      </trkpt>
      <trkpt lat="43.80605" lon="5.17167">
        <ele>707</ele>
        <time>2019-09-14T08:56:55Z</time>
      </trkpt>
      <trkpt lat="43.80604" lon="5.1718">
        <ele>707</ele>
        <time>2019-09-14T08:57:03Z</time>
      </trkpt>
      <trkpt lat="43.80606" lon="5.17193">
        <ele>708</ele>
        <time>2019-09-14T08:57:10Z</time>
      </trkpt>
      <trkpt lat="43.80607" lon="5.17207">
        <ele>708</ele>
        <time>2019-09-14T08:57:18Z</time>
      </trkpt>
      <trkpt lat="43.80607" lon="5.1722">
        <ele>709</ele>
        <time>2019-09-14T08:57:26Z</time>
      </trkpt>
      <trkpt lat="43.80608" lon="5.17246">
        <ele>709</ele>
        <time>2019-09-14T08:57:43Z</time>
      </trkpt>
      <trkpt lat="43.80608" lon="5.17258">
        <ele>709</ele>
        <time>2019-09-14T08:57:51Z</time>
      </trkpt>
      <trkpt lat="43.8061" lon="5.17271">
        <ele>711</ele>
        <time>2019-09-14T08:58:01Z</time>
      </trkpt>
      <trkpt lat="43.80612" lon="5.17284">
        <ele>711</ele>
        <time>2019-09-14T08:58:09Z</time>
      </trkpt>
      <trkpt lat="43.80614" lon="5.17298">
        <ele>711</ele>
        <time>2019-09-14T08:58:17Z</time>
      </trkpt>
      <trkpt lat="43.80615" lon="5.1731">
        <ele>712</ele>
        <time>2019-09-14T08:58:24Z</time>
      </trkpt>
      <trkpt lat="43.80616" lon="5.17324">
        <ele>711</ele>
        <time>2019-09-14T08:58:32Z</time>
      </trkpt>
      <trkpt lat="43.80618" lon="5.17338">
        <ele>712</ele>
        <time>2019-09-14T08:58:40Z</time>
      </trkpt>
      <trkpt lat="43.8062" lon="5.17351">
        <ele>712</ele>
        <time>2019-09-14T08:58:48Z</time>
      </trkpt>
      <trkpt lat="43.80622" lon="5.17364">
        <ele>712</ele>
        <time>2019-09-14T08:58:56Z</time>
      </trkpt>
      <trkpt lat="43.80624" lon="5.17378">
        <ele>712</ele>
        <time>2019-09-14T08:59:05Z</time>
      </trkpt>
      <trkpt lat="43.80625" lon="5.17391">
        <ele>712</ele>
        <time>2019-09-14T08:59:13Z</time>
      </trkpt>
      <trkpt lat="43.80625" lon="5.17405">
        <ele>712</ele>
        <time>2019-09-14T08:59:22Z</time>
      </trkpt>
      <trkpt lat="43.80626" lon="5.17418">
        <ele>713</ele>
        <time>2019-09-14T08:59:30Z</time>
      </trkpt>
      <trkpt lat="43.80625" lon="5.17432">
        <ele>713</ele>
        <time>2019-09-14T08:59:38Z</time>
      </trkpt>
      <trkpt lat="43.80623" lon="5.17444">
        <ele>713</ele>
        <time>2019-09-14T08:59:46Z</time>
      </trkpt>
      <trkpt lat="43.80621" lon="5.17457">
        <ele>713</ele>
        <time>2019-09-14T09:00:20Z</time>
      </trkpt>
      <trkpt lat="43.80622" lon="5.17472">
        <ele>712</ele>
        <time>2019-09-14T09:00:36Z</time>
      </trkpt>
      <trkpt lat="43.8062" lon="5.17485">
        <ele>713</ele>
        <time>2019-09-14T09:00:44Z</time>
      </trkpt>
      <trkpt lat="43.80617" lon="5.17497">
        <ele>713</ele>
        <time>2019-09-14T09:00:52Z</time>
      </trkpt>
      <trkpt lat="43.80615" lon="5.17513">
        <ele>713</ele>
        <time>2019-09-14T09:01:02Z</time>
      </trkpt>
      <trkpt lat="43.80613" lon="5.17526">
        <ele>713</ele>
        <time>2019-09-14T09:01:10Z</time>
      </trkpt>
      <trkpt lat="43.80611" lon="5.1754">
        <ele>713</ele>
        <time>2019-09-14T09:01:20Z</time>
      </trkpt>
      <trkpt lat="43.80609" lon="5.17554">
        <ele>714</ele>
        <time>2019-09-14T09:01:30Z</time>
      </trkpt>
      <trkpt lat="43.80606" lon="5.17568">
        <ele>714</ele>
        <time>2019-09-14T09:01:40Z</time>
      </trkpt>
      <trkpt lat="43.80605" lon="5.17583">
        <ele>714</ele>
        <time>2019-09-14T09:01:50Z</time>
      </trkpt>
      <trkpt lat="43.80601" lon="5.17595">
        <ele>714</ele>
        <time>2019-09-14T09:01:58Z</time>
      </trkpt>
      <trkpt lat="43.80597" lon="5.17609">
        <ele>714</ele>
        <time>2019-09-14T09:02:08Z</time>
      </trkpt>
      <trkpt lat="43.80593" lon="5.17623">
        <ele>715</ele>
        <time>2019-09-14T09:02:18Z</time>
      </trkpt>
      <trkpt lat="43.80588" lon="5.17637">
        <ele>715</ele>
        <time>2019-09-14T09:02:28Z</time>
      </trkpt>
      <trkpt lat="43.80584" lon="5.1765">
        <ele>715</ele>
        <time>2019-09-14T09:02:38Z</time>
      </trkpt>
      <trkpt lat="43.80579" lon="5.1766">
        <ele>716</ele>
        <time>2019-09-14T09:02:54Z</time>
      </trkpt>
      <trkpt lat="43.80576" lon="5.17675">
        <ele>717</ele>
        <time>2019-09-14T09:03:46Z</time>
      </trkpt>
      <trkpt lat="43.8057" lon="5.17686">
        <ele>717</ele>
        <time>2019-09-14T09:03:55Z</time>
      </trkpt>
      <trkpt lat="43.80566" lon="5.17699">
        <ele>718</ele>
        <time>2019-09-14T09:04:25Z</time>
      </trkpt>
      <trkpt lat="43.8056" lon="5.17712">
        <ele>718</ele>
        <time>2019-09-14T09:04:51Z</time>
      </trkpt>
      <trkpt lat="43.80556" lon="5.17723">
        <ele>720</ele>
        <time>2019-09-14T09:05:01Z</time>
      </trkpt>
      <trkpt lat="43.80551" lon="5.17736">
        <ele>720</ele>
        <time>2019-09-14T09:05:10Z</time>
      </trkpt>
      <trkpt lat="43.80545" lon="5.17746">
        <ele>720</ele>
        <time>2019-09-14T09:05:18Z</time>
      </trkpt>
      <trkpt lat="43.80541" lon="5.17757">
        <ele>720</ele>
        <time>2019-09-14T09:05:26Z</time>
      </trkpt>
      <trkpt lat="43.80537" lon="5.17769">
        <ele>721</ele>
        <time>2019-09-14T09:05:38Z</time>
      </trkpt>
      <trkpt lat="43.80534" lon="5.17782">
        <ele>720</ele>
        <time>2019-09-14T09:05:47Z</time>
      </trkpt>
      <trkpt lat="43.80532" lon="5.17796">
        <ele>720</ele>
        <time>2019-09-14T09:05:56Z</time>
      </trkpt>
      <trkpt lat="43.80528" lon="5.17809">
        <ele>719</ele>
        <time>2019-09-14T09:06:04Z</time>
      </trkpt>
      <trkpt lat="43.80527" lon="5.17822">
        <ele>720</ele>
        <time>2019-09-14T09:06:12Z</time>
      </trkpt>
      <trkpt lat="43.80526" lon="5.17834">
        <ele>720</ele>
        <time>2019-09-14T09:06:21Z</time>
      </trkpt>
      <trkpt lat="43.80526" lon="5.17848">
        <ele>719</ele>
        <time>2019-09-14T09:06:31Z</time>
      </trkpt>
      <trkpt lat="43.80528" lon="5.17861">
        <ele>719</ele>
        <time>2019-09-14T09:06:40Z</time>
      </trkpt>
      <trkpt lat="43.80529" lon="5.17874">
        <ele>719</ele>
        <time>2019-09-14T09:06:49Z</time>
      </trkpt>
      <trkpt lat="43.8053" lon="5.17887">
        <ele>719</ele>
        <time>2019-09-14T09:06:58Z</time>
      </trkpt>
      <trkpt lat="43.80531" lon="5.17901">
        <ele>719</ele>
        <time>2019-09-14T09:07:06Z</time>
      </trkpt>
      <trkpt lat="43.80533" lon="5.17914">
        <ele>719</ele>
        <time>2019-09-14T09:07:14Z</time>
      </trkpt>
      <trkpt lat="43.80534" lon="5.17926">
        <ele>720</ele>
        <time>2019-09-14T09:07:22Z</time>
      </trkpt>
      <trkpt lat="43.80535" lon="5.1794">
        <ele>719</ele>
        <time>2019-09-14T09:07:31Z</time>
      </trkpt>
      <trkpt lat="43.80537" lon="5.17953">
        <ele>719</ele>
        <time>2019-09-14T09:07:40Z</time>
      </trkpt>
      <trkpt lat="43.80539" lon="5.17965">
        <ele>719</ele>
        <time>2019-09-14T09:07:48Z</time>
      </trkpt>
      <trkpt lat="43.8054" lon="5.17991">
        <ele>719</ele>
        <time>2019-09-14T09:08:03Z</time>
      </trkpt>
      <trkpt lat="43.8054" lon="5.18004">
        <ele>719</ele>
        <time>2019-09-14T09:08:11Z</time>
      </trkpt>
      <trkpt lat="43.80538" lon="5.18017">
        <ele>719</ele>
        <time>2019-09-14T09:08:20Z</time>
      </trkpt>
      <trkpt lat="43.80536" lon="5.18029">
        <ele>718</ele>
        <time>2019-09-14T09:08:29Z</time>
      </trkpt>
      <trkpt lat="43.80534" lon="5.18042">
        <ele>719</ele>
        <time>2019-09-14T09:08:37Z</time>
      </trkpt>
      <trkpt lat="43.80527" lon="5.18066">
        <ele>719</ele>
        <time>2019-09-14T09:08:54Z</time>
      </trkpt>
      <trkpt lat="43.80523" lon="5.18078">
        <ele>720</ele>
        <time>2019-09-14T09:09:01Z</time>
      </trkpt>
      <trkpt lat="43.80519" lon="5.18091">
        <ele>721</ele>
        <time>2019-09-14T09:09:15Z</time>
      </trkpt>
      <trkpt lat="43.80514" lon="5.18103">
        <ele>721</ele>
        <time>2019-09-14T09:09:24Z</time>
      </trkpt>
      <trkpt lat="43.80509" lon="5.18116">
        <ele>720</ele>
        <time>2019-09-14T09:09:31Z</time>
      </trkpt>
      <trkpt lat="43.80504" lon="5.18128">
        <ele>721</ele>
        <time>2019-09-14T09:09:39Z</time>
      </trkpt>
      <trkpt lat="43.80499" lon="5.18139">
        <ele>721</ele>
        <time>2019-09-14T09:09:46Z</time>
      </trkpt>
      <trkpt lat="43.80495" lon="5.18151">
        <ele>722</ele>
        <time>2019-09-14T09:09:54Z</time>
      </trkpt>
      <trkpt lat="43.80491" lon="5.18162">
        <ele>722</ele>
        <time>2019-09-14T09:10:02Z</time>
      </trkpt>
      <trkpt lat="43.80485" lon="5.18173">
        <ele>721</ele>
        <time>2019-09-14T09:10:11Z</time>
      </trkpt>
      <trkpt lat="43.80481" lon="5.18184">
        <ele>721</ele>
        <time>2019-09-14T09:10:20Z</time>
      </trkpt>
      <trkpt lat="43.80477" lon="5.18196">
        <ele>722</ele>
        <time>2019-09-14T09:10:28Z</time>
      </trkpt>
      <trkpt lat="43.80472" lon="5.18208">
        <ele>722</ele>
        <time>2019-09-14T09:10:36Z</time>
      </trkpt>
      <trkpt lat="43.80469" lon="5.1822">
        <ele>722</ele>
        <time>2019-09-14T09:10:44Z</time>
      </trkpt>
      <trkpt lat="43.80464" lon="5.18232">
        <ele>722</ele>
        <time>2019-09-14T09:10:53Z</time>
      </trkpt>
      <trkpt lat="43.8046" lon="5.18244">
        <ele>722</ele>
        <time>2019-09-14T09:11:01Z</time>
      </trkpt>
      <trkpt lat="43.80455" lon="5.18256">
        <ele>722</ele>
        <time>2019-09-14T09:11:08Z</time>
      </trkpt>
      <trkpt lat="43.8045" lon="5.18268">
        <ele>721</ele>
        <time>2019-09-14T09:11:17Z</time>
      </trkpt>
      <trkpt lat="43.80447" lon="5.1828">
        <ele>721</ele>
        <time>2019-09-14T09:11:24Z</time>
      </trkpt>
      <trkpt lat="43.80441" lon="5.1829">
        <ele>721</ele>
        <time>2019-09-14T09:11:32Z</time>
      </trkpt>
      <trkpt lat="43.80436" lon="5.18301">
        <ele>721</ele>
        <time>2019-09-14T09:11:43Z</time>
      </trkpt>
      <trkpt lat="43.8043" lon="5.1831">
        <ele>722</ele>
        <time>2019-09-14T09:11:51Z</time>
      </trkpt>
      <trkpt lat="43.80423" lon="5.18321">
        <ele>721</ele>
        <time>2019-09-14T09:12:00Z</time>
      </trkpt>
      <trkpt lat="43.80418" lon="5.18333">
        <ele>721</ele>
        <time>2019-09-14T09:12:08Z</time>
      </trkpt>
      <trkpt lat="43.80414" lon="5.18345">
        <ele>721</ele>
        <time>2019-09-14T09:12:16Z</time>
      </trkpt>
      <trkpt lat="43.80409" lon="5.18355">
        <ele>721</ele>
        <time>2019-09-14T09:12:24Z</time>
      </trkpt>
      <trkpt lat="43.80404" lon="5.18368">
        <ele>721</ele>
        <time>2019-09-14T09:12:32Z</time>
      </trkpt>
      <trkpt lat="43.80399" lon="5.18379">
        <ele>721</ele>
        <time>2019-09-14T09:12:41Z</time>
      </trkpt>
      <trkpt lat="43.80393" lon="5.18388">
        <ele>721</ele>
        <time>2019-09-14T09:12:49Z</time>
      </trkpt>
      <trkpt lat="43.80386" lon="5.18398">
        <ele>720</ele>
        <time>2019-09-14T09:12:58Z</time>
      </trkpt>
      <trkpt lat="43.80381" lon="5.1841">
        <ele>720</ele>
        <time>2019-09-14T09:13:06Z</time>
      </trkpt>
      <trkpt lat="43.80374" lon="5.1842">
        <ele>720</ele>
        <time>2019-09-14T09:13:14Z</time>
      </trkpt>
      <trkpt lat="43.80369" lon="5.1843">
        <ele>721</ele>
        <time>2019-09-14T09:13:21Z</time>
      </trkpt>
      <trkpt lat="43.80361" lon="5.18438">
        <ele>721</ele>
        <time>2019-09-14T09:13:29Z</time>
      </trkpt>
      <trkpt lat="43.80354" lon="5.18447">
        <ele>720</ele>
        <time>2019-09-14T09:13:37Z</time>
      </trkpt>
      <trkpt lat="43.80347" lon="5.18456">
        <ele>721</ele>
        <time>2019-09-14T09:13:44Z</time>
      </trkpt>
      <trkpt lat="43.80339" lon="5.18465">
        <ele>721</ele>
        <time>2019-09-14T09:13:53Z</time>
      </trkpt>
      <trkpt lat="43.80331" lon="5.18472">
        <ele>721</ele>
        <time>2019-09-14T09:14:01Z</time>
      </trkpt>
      <trkpt lat="43.80325" lon="5.18483">
        <ele>721</ele>
        <time>2019-09-14T09:14:10Z</time>
      </trkpt>
      <trkpt lat="43.80318" lon="5.18493">
        <ele>721</ele>
        <time>2019-09-14T09:14:19Z</time>
      </trkpt>
      <trkpt lat="43.80311" lon="5.18503">
        <ele>721</ele>
        <time>2019-09-14T09:14:27Z</time>
      </trkpt>
      <trkpt lat="43.80304" lon="5.1851">
        <ele>720</ele>
        <time>2019-09-14T09:14:35Z</time>
      </trkpt>
      <trkpt lat="43.80298" lon="5.18522">
        <ele>720</ele>
        <time>2019-09-14T09:14:42Z</time>
      </trkpt>
      <trkpt lat="43.80288" lon="5.18538">
        <ele>719</ele>
        <time>2019-09-14T09:15:47Z</time>
      </trkpt>
      <trkpt lat="43.80282" lon="5.18547">
        <ele>718</ele>
        <time>2019-09-14T09:15:55Z</time>
      </trkpt>
      <trkpt lat="43.80276" lon="5.18557">
        <ele>718</ele>
        <time>2019-09-14T09:16:02Z</time>
      </trkpt>
      <trkpt lat="43.8027" lon="5.18567">
        <ele>718</ele>
        <time>2019-09-14T09:16:10Z</time>
      </trkpt>
      <trkpt lat="43.80266" lon="5.18578">
        <ele>717</ele>
        <time>2019-09-14T09:16:18Z</time>
      </trkpt>
      <trkpt lat="43.80261" lon="5.1859">
        <ele>717</ele>
        <time>2019-09-14T09:16:26Z</time>
      </trkpt>
      <trkpt lat="43.80256" lon="5.18601">
        <ele>717</ele>
        <time>2019-09-14T09:16:46Z</time>
      </trkpt>
      <trkpt lat="43.80252" lon="5.18614">
        <ele>718</ele>
        <time>2019-09-14T09:16:55Z</time>
      </trkpt>
      <trkpt lat="43.80247" lon="5.18625">
        <ele>717</ele>
        <time>2019-09-14T09:17:03Z</time>
      </trkpt>
      <trkpt lat="43.80245" lon="5.18639">
        <ele>717</ele>
        <time>2019-09-14T09:17:18Z</time>
      </trkpt>
      <trkpt lat="43.80241" lon="5.18652">
        <ele>717</ele>
        <time>2019-09-14T09:17:24Z</time>
      </trkpt>
      <trkpt lat="43.80237" lon="5.18664">
        <ele>717</ele>
        <time>2019-09-14T09:17:31Z</time>
      </trkpt>
      <trkpt lat="43.80232" lon="5.18675">
        <ele>717</ele>
        <time>2019-09-14T09:17:39Z</time>
      </trkpt>
      <trkpt lat="43.80226" lon="5.18686">
        <ele>717</ele>
        <time>2019-09-14T09:17:47Z</time>
      </trkpt>
      <trkpt lat="43.80221" lon="5.18697">
        <ele>717</ele>
        <time>2019-09-14T09:17:55Z</time>
      </trkpt>
      <trkpt lat="43.80217" lon="5.18709">
        <ele>717</ele>
        <time>2019-09-14T09:18:02Z</time>
      </trkpt>
      <trkpt lat="43.80207" lon="5.18731">
        <ele>718</ele>
        <time>2019-09-14T09:18:16Z</time>
      </trkpt>
      <trkpt lat="43.80202" lon="5.18741">
        <ele>719</ele>
        <time>2019-09-14T09:18:24Z</time>
      </trkpt>
      <trkpt lat="43.80194" lon="5.18751">
        <ele>718</ele>
        <time>2019-09-14T09:18:32Z</time>
      </trkpt>
      <trkpt lat="43.80187" lon="5.18761">
        <ele>718</ele>
        <time>2019-09-14T09:18:39Z</time>
      </trkpt>
      <trkpt lat="43.80182" lon="5.18771">
        <ele>718</ele>
        <time>2019-09-14T09:18:46Z</time>
      </trkpt>
      <trkpt lat="43.80175" lon="5.18781">
        <ele>718</ele>
        <time>2019-09-14T09:18:54Z</time>
      </trkpt>
      <trkpt lat="43.80168" lon="5.1879">
        <ele>718</ele>
        <time>2019-09-14T09:19:02Z</time>
      </trkpt>
      <trkpt lat="43.8016" lon="5.18798">
        <ele>718</ele>
        <time>2019-09-14T09:19:10Z</time>
      </trkpt>
      <trkpt lat="43.80165" lon="5.18815">
        <ele>715</ele>
        <time>2019-09-14T09:20:49Z</time>
      </trkpt>
      <trkpt lat="43.80174" lon="5.18819">
        <ele>714</ele>
        <time>2019-09-14T09:20:59Z</time>
      </trkpt>
      <trkpt lat="43.80181" lon="5.18827">
        <ele>714</ele>
        <time>2019-09-14T09:21:16Z</time>
      </trkpt>
      <trkpt lat="43.8019" lon="5.18823">
        <ele>713</ele>
        <time>2019-09-14T09:21:30Z</time>
      </trkpt>
      <trkpt lat="43.802" lon="5.18821">
        <ele>713</ele>
        <time>2019-09-14T09:21:40Z</time>
      </trkpt>
      <trkpt lat="43.80209" lon="5.18817">
        <ele>714</ele>
        <time>2019-09-14T09:21:52Z</time>
      </trkpt>
      <trkpt lat="43.80217" lon="5.18824">
        <ele>713</ele>
        <time>2019-09-14T09:22:12Z</time>
      </trkpt>
      <trkpt lat="43.80222" lon="5.18835">
        <ele>714</ele>
        <time>2019-09-14T09:22:22Z</time>
      </trkpt>
      <trkpt lat="43.80224" lon="5.18847">
        <ele>715</ele>
        <time>2019-09-14T09:22:32Z</time>
      </trkpt>
      <trkpt lat="43.80225" lon="5.18862">
        <ele>714</ele>
        <time>2019-09-14T09:22:44Z</time>
      </trkpt>
      <trkpt lat="43.80231" lon="5.18871">
        <ele>714</ele>
        <time>2019-09-14T09:23:04Z</time>
      </trkpt>
      <trkpt lat="43.8024" lon="5.18878">
        <ele>714</ele>
        <time>2019-09-14T09:23:16Z</time>
      </trkpt>
      <trkpt lat="43.8025" lon="5.18879">
        <ele>714</ele>
        <time>2019-09-14T09:23:28Z</time>
      </trkpt>
      <trkpt lat="43.80256" lon="5.18891">
        <ele>714</ele>
        <time>2019-09-14T09:23:54Z</time>
      </trkpt>
      <trkpt lat="43.80263" lon="5.18899">
        <ele>714</ele>
        <time>2019-09-14T09:24:06Z</time>
      </trkpt>
      <trkpt lat="43.80271" lon="5.18905">
        <ele>715</ele>
        <time>2019-09-14T09:24:18Z</time>
      </trkpt>
      <trkpt lat="43.80281" lon="5.18907">
        <ele>714</ele>
        <time>2019-09-14T09:24:30Z</time>
      </trkpt>
      <trkpt lat="43.80289" lon="5.18912">
        <ele>714</ele>
        <time>2019-09-14T09:24:42Z</time>
      </trkpt>
      <trkpt lat="43.80298" lon="5.1892">
        <ele>713</ele>
        <time>2019-09-14T09:24:56Z</time>
      </trkpt>
      <trkpt lat="43.8031" lon="5.18933">
        <ele>714</ele>
        <time>2019-09-14T09:25:31Z</time>
      </trkpt>
      <trkpt lat="43.80319" lon="5.18939">
        <ele>714</ele>
        <time>2019-09-14T09:25:41Z</time>
      </trkpt>
      <trkpt lat="43.80327" lon="5.18946">
        <ele>715</ele>
        <time>2019-09-14T09:25:51Z</time>
      </trkpt>
      <trkpt lat="43.80334" lon="5.18955">
        <ele>715</ele>
        <time>2019-09-14T09:26:03Z</time>
      </trkpt>
      <trkpt lat="43.80342" lon="5.18963">
        <ele>715</ele>
        <time>2019-09-14T09:26:15Z</time>
      </trkpt>
      <trkpt lat="43.8035" lon="5.18971">
        <ele>714</ele>
        <time>2019-09-14T09:26:29Z</time>
      </trkpt>
      <trkpt lat="43.80358" lon="5.18977">
        <ele>713</ele>
        <time>2019-09-14T09:26:41Z</time>
      </trkpt>
      <trkpt lat="43.80365" lon="5.18986">
        <ele>713</ele>
        <time>2019-09-14T09:26:54Z</time>
      </trkpt>
      <trkpt lat="43.80372" lon="5.18994">
        <ele>713</ele>
        <time>2019-09-14T09:27:05Z</time>
      </trkpt>
      <trkpt lat="43.8038" lon="5.19002">
        <ele>712</ele>
        <time>2019-09-14T09:27:17Z</time>
      </trkpt>
      <trkpt lat="43.80388" lon="5.19009">
        <ele>712</ele>
        <time>2019-09-14T09:27:27Z</time>
      </trkpt>
      <trkpt lat="43.80396" lon="5.19019">
        <ele>712</ele>
        <time>2019-09-14T09:27:37Z</time>
      </trkpt>
      <trkpt lat="43.80402" lon="5.19029">
        <ele>712</ele>
        <time>2019-09-14T09:27:50Z</time>
      </trkpt>
      <trkpt lat="43.8041" lon="5.19037">
        <ele>712</ele>
        <time>2019-09-14T09:28:02Z</time>
      </trkpt>
      <trkpt lat="43.80417" lon="5.19046">
        <ele>712</ele>
        <time>2019-09-14T09:28:14Z</time>
      </trkpt>
      <trkpt lat="43.80423" lon="5.19055">
        <ele>712</ele>
        <time>2019-09-14T09:28:24Z</time>
      </trkpt>
      <trkpt lat="43.8043" lon="5.19063">
        <ele>712</ele>
        <time>2019-09-14T09:28:35Z</time>
      </trkpt>
      <trkpt lat="43.80439" lon="5.19069">
        <ele>711</ele>
        <time>2019-09-14T09:28:46Z</time>
      </trkpt>
      <trkpt lat="43.80447" lon="5.19077">
        <ele>710</ele>
        <time>2019-09-14T09:28:57Z</time>
      </trkpt>
      <trkpt lat="43.80456" lon="5.19081">
        <ele>709</ele>
        <time>2019-09-14T09:29:08Z</time>
      </trkpt>
      <trkpt lat="43.80464" lon="5.19085">
        <ele>707</ele>
        <time>2019-09-14T09:29:22Z</time>
      </trkpt>
      <trkpt lat="43.80473" lon="5.19089">
        <ele>707</ele>
        <time>2019-09-14T09:29:34Z</time>
      </trkpt>
      <trkpt lat="43.80481" lon="5.19097">
        <ele>706</ele>
        <time>2019-09-14T09:29:45Z</time>
      </trkpt>
      <trkpt lat="43.8049" lon="5.19101">
        <ele>705</ele>
        <time>2019-09-14T09:29:57Z</time>
      </trkpt>
      <trkpt lat="43.80498" lon="5.19108">
        <ele>705</ele>
        <time>2019-09-14T09:30:08Z</time>
      </trkpt>
      <trkpt lat="43.80506" lon="5.19114">
        <ele>704</ele>
        <time>2019-09-14T09:30:19Z</time>
      </trkpt>
      <trkpt lat="43.80515" lon="5.19111">
        <ele>704</ele>
        <time>2019-09-14T09:30:34Z</time>
      </trkpt>
      <trkpt lat="43.80525" lon="5.19112">
        <ele>704</ele>
        <time>2019-09-14T09:30:49Z</time>
      </trkpt>
      <trkpt lat="43.80534" lon="5.19116">
        <ele>704</ele>
        <time>2019-09-14T09:31:05Z</time>
      </trkpt>
      <trkpt lat="43.80542" lon="5.19122">
        <ele>703</ele>
        <time>2019-09-14T09:31:20Z</time>
      </trkpt>
      <trkpt lat="43.8055" lon="5.19127">
        <ele>702</ele>
        <time>2019-09-14T09:31:32Z</time>
      </trkpt>
      <trkpt lat="43.80559" lon="5.19134">
        <ele>701</ele>
        <time>2019-09-14T09:31:45Z</time>
      </trkpt>
      <trkpt lat="43.80568" lon="5.19138">
        <ele>699</ele>
        <time>2019-09-14T09:32:01Z</time>
      </trkpt>
      <trkpt lat="43.80573" lon="5.19149">
        <ele>698</ele>
        <time>2019-09-14T09:32:15Z</time>
      </trkpt>
      <trkpt lat="43.80577" lon="5.19161">
        <ele>696</ele>
        <time>2019-09-14T09:32:27Z</time>
      </trkpt>
      <trkpt lat="43.80583" lon="5.19171">
        <ele>695</ele>
        <time>2019-09-14T09:32:47Z</time>
      </trkpt>
      <trkpt lat="43.8059" lon="5.19179">
        <ele>693</ele>
        <time>2019-09-14T09:32:58Z</time>
      </trkpt>
      <trkpt lat="43.80597" lon="5.19186">
        <ele>691</ele>
        <time>2019-09-14T09:33:17Z</time>
      </trkpt>
      <trkpt lat="43.80604" lon="5.19196">
        <ele>689</ele>
        <time>2019-09-14T09:33:29Z</time>
      </trkpt>
      <trkpt lat="43.8061" lon="5.19204">
        <ele>687</ele>
        <time>2019-09-14T09:33:45Z</time>
      </trkpt>
      <trkpt lat="43.80611" lon="5.19217">
        <ele>685</ele>
        <time>2019-09-14T09:34:06Z</time>
      </trkpt>
      <trkpt lat="43.8062" lon="5.19222">
        <ele>683</ele>
        <time>2019-09-14T09:34:19Z</time>
      </trkpt>
      <trkpt lat="43.80628" lon="5.19228">
        <ele>680</ele>
        <time>2019-09-14T09:34:36Z</time>
      </trkpt>
      <trkpt lat="43.80637" lon="5.19231">
        <ele>678</ele>
        <time>2019-09-14T09:35:02Z</time>
      </trkpt>
      <trkpt lat="43.80645" lon="5.19236">
        <ele>675</ele>
        <time>2019-09-14T09:35:23Z</time>
      </trkpt>
      <trkpt lat="43.80654" lon="5.19239">
        <ele>673</ele>
        <time>2019-09-14T09:35:35Z</time>
      </trkpt>
      <trkpt lat="43.80663" lon="5.19241">
        <ele>671</ele>
        <time>2019-09-14T09:35:51Z</time>
      </trkpt>
      <trkpt lat="43.80672" lon="5.1924">
        <ele>668</ele>
        <time>2019-09-14T09:36:05Z</time>
      </trkpt>
      <trkpt lat="43.80681" lon="5.19245">
        <ele>667</ele>
        <time>2019-09-14T09:36:20Z</time>
      </trkpt>
      <trkpt lat="43.80683" lon="5.19257">
        <ele>666</ele>
        <time>2019-09-14T09:36:35Z</time>
      </trkpt>
      <trkpt lat="43.80693" lon="5.19257">
        <ele>665</ele>
        <time>2019-09-14T09:36:55Z</time>
      </trkpt>
      <trkpt lat="43.80702" lon="5.19257">
        <ele>663</ele>
        <time>2019-09-14T09:37:17Z</time>
      </trkpt>
      <trkpt lat="43.80712" lon="5.19258">
        <ele>661</ele>
        <time>2019-09-14T09:37:32Z</time>
      </trkpt>
      <trkpt lat="43.80721" lon="5.19257">
        <ele>659</ele>
        <time>2019-09-14T09:37:45Z</time>
      </trkpt>
      <trkpt lat="43.8073" lon="5.19255">
        <ele>657</ele>
        <time>2019-09-14T09:37:55Z</time>
      </trkpt>
      <trkpt lat="43.8074" lon="5.19253">
        <ele>655</ele>
        <time>2019-09-14T09:38:06Z</time>
      </trkpt>
      <trkpt lat="43.80741" lon="5.19266">
        <ele>652</ele>
        <time>2019-09-14T09:38:58Z</time>
      </trkpt>
      <trkpt lat="43.80739" lon="5.19278">
        <ele>650</ele>
        <time>2019-09-14T09:39:10Z</time>
      </trkpt>
      <trkpt lat="43.80735" lon="5.1929">
        <ele>649</ele>
        <time>2019-09-14T09:39:24Z</time>
      </trkpt>
      <trkpt lat="43.80732" lon="5.19302">
        <ele>647</ele>
        <time>2019-09-14T09:39:36Z</time>
      </trkpt>
      <trkpt lat="43.8073" lon="5.19314">
        <ele>645</ele>
        <time>2019-09-14T09:39:56Z</time>
      </trkpt>
      <trkpt lat="43.80723" lon="5.19322">
        <ele>643</ele>
        <time>2019-09-14T09:40:11Z</time>
      </trkpt>
      <trkpt lat="43.80715" lon="5.1933">
        <ele>641</ele>
        <time>2019-09-14T09:40:23Z</time>
      </trkpt>
      <trkpt lat="43.80706" lon="5.19336">
        <ele>641</ele>
        <time>2019-09-14T09:40:35Z</time>
      </trkpt>
      <trkpt lat="43.80699" lon="5.19343">
        <ele>640</ele>
        <time>2019-09-14T09:40:47Z</time>
      </trkpt>
      <trkpt lat="43.80692" lon="5.19353">
        <ele>639</ele>
        <time>2019-09-14T09:40:56Z</time>
      </trkpt>
      <trkpt lat="43.80685" lon="5.19361">
        <ele>636</ele>
        <time>2019-09-14T09:41:10Z</time>
      </trkpt>
      <trkpt lat="43.80679" lon="5.19371">
        <ele>633</ele>
        <time>2019-09-14T09:41:24Z</time>
      </trkpt>
      <trkpt lat="43.80673" lon="5.19382">
        <ele>631</ele>
        <time>2019-09-14T09:41:37Z</time>
      </trkpt>
      <trkpt lat="43.80669" lon="5.19393">
        <ele>629</ele>
        <time>2019-09-14T09:41:59Z</time>
      </trkpt>
      <trkpt lat="43.80664" lon="5.19404">
        <ele>627</ele>
        <time>2019-09-14T09:42:10Z</time>
      </trkpt>
      <trkpt lat="43.80658" lon="5.19414">
        <ele>624</ele>
        <time>2019-09-14T09:42:23Z</time>
      </trkpt>
      <trkpt lat="43.80655" lon="5.19427">
        <ele>622</ele>
        <time>2019-09-14T09:42:36Z</time>
      </trkpt>
      <trkpt lat="43.80651" lon="5.19439">
        <ele>622</ele>
        <time>2019-09-14T09:42:47Z</time>
      </trkpt>
      <trkpt lat="43.80651" lon="5.19452">
        <ele>620</ele>
        <time>2019-09-14T09:42:58Z</time>
      </trkpt>
      <trkpt lat="43.80649" lon="5.19465">
        <ele>619</ele>
        <time>2019-09-14T09:43:08Z</time>
      </trkpt>
      <trkpt lat="43.80642" lon="5.19474">
        <ele>617</ele>
        <time>2019-09-14T09:43:20Z</time>
      </trkpt>
      <trkpt lat="43.80645" lon="5.19487">
        <ele>615</ele>
        <time>2019-09-14T09:43:34Z</time>
      </trkpt>
      <trkpt lat="43.80651" lon="5.19497">
        <ele>613</ele>
        <time>2019-09-14T09:43:47Z</time>
      </trkpt>
      <trkpt lat="43.80661" lon="5.19504">
        <ele>607</ele>
        <time>2019-09-14T09:45:01Z</time>
      </trkpt>
      <trkpt lat="43.8067" lon="5.19507">
        <ele>606</ele>
        <time>2019-09-14T09:45:14Z</time>
      </trkpt>
      <trkpt lat="43.80679" lon="5.19513">
        <ele>604</ele>
        <time>2019-09-14T09:45:24Z</time>
      </trkpt>
      <trkpt lat="43.80686" lon="5.19522">
        <ele>602</ele>
        <time>2019-09-14T09:45:38Z</time>
      </trkpt>
      <trkpt lat="43.80692" lon="5.1953">
        <ele>601</ele>
        <time>2019-09-14T09:45:48Z</time>
      </trkpt>
      <trkpt lat="43.80699" lon="5.1954">
        <ele>600</ele>
        <time>2019-09-14T09:45:58Z</time>
      </trkpt>
      <trkpt lat="43.80706" lon="5.1955">
        <ele>599</ele>
        <time>2019-09-14T09:46:08Z</time>
      </trkpt>
      <trkpt lat="43.80712" lon="5.1956">
        <ele>598</ele>
        <time>2019-09-14T09:46:18Z</time>
      </trkpt>
      <trkpt lat="43.80719" lon="5.19567">
        <ele>597</ele>
        <time>2019-09-14T09:46:28Z</time>
      </trkpt>
      <trkpt lat="43.80728" lon="5.19573">
        <ele>596</ele>
        <time>2019-09-14T09:46:38Z</time>
      </trkpt>
      <trkpt lat="43.80734" lon="5.19581">
        <ele>595</ele>
        <time>2019-09-14T09:46:47Z</time>
      </trkpt>
      <trkpt lat="43.80742" lon="5.19588">
        <ele>594</ele>
        <time>2019-09-14T09:47:01Z</time>
      </trkpt>
      <trkpt lat="43.80751" lon="5.19593">
        <ele>592</ele>
        <time>2019-09-14T09:47:11Z</time>
      </trkpt>
      <trkpt lat="43.8076" lon="5.19598">
        <ele>592</ele>
        <time>2019-09-14T09:47:20Z</time>
      </trkpt>
      <trkpt lat="43.80768" lon="5.19603">
        <ele>592</ele>
        <time>2019-09-14T09:47:29Z</time>
      </trkpt>
      <trkpt lat="43.80776" lon="5.19611">
        <ele>592</ele>
        <time>2019-09-14T09:47:39Z</time>
      </trkpt>
      <trkpt lat="43.80785" lon="5.19615">
        <ele>590</ele>
        <time>2019-09-14T09:47:50Z</time>
      </trkpt>
      <trkpt lat="43.80793" lon="5.19622">
        <ele>590</ele>
        <time>2019-09-14T09:48:00Z</time>
      </trkpt>
      <trkpt lat="43.80801" lon="5.19629">
        <ele>589</ele>
        <time>2019-09-14T09:48:10Z</time>
      </trkpt>
      <trkpt lat="43.8081" lon="5.19634">
        <ele>588</ele>
        <time>2019-09-14T09:48:20Z</time>
      </trkpt>
      <trkpt lat="43.80818" lon="5.1964">
        <ele>585</ele>
        <time>2019-09-14T09:48:32Z</time>
      </trkpt>
      <trkpt lat="43.80827" lon="5.19639">
        <ele>583</ele>
        <time>2019-09-14T09:48:42Z</time>
      </trkpt>
      <trkpt lat="43.80837" lon="5.19639">
        <ele>584</ele>
        <time>2019-09-14T09:48:52Z</time>
      </trkpt>
      <trkpt lat="43.80845" lon="5.19646">
        <ele>580</ele>
        <time>2019-09-14T09:50:13Z</time>
      </trkpt>
      <trkpt lat="43.80854" lon="5.19643">
        <ele>578</ele>
        <time>2019-09-14T09:50:25Z</time>
      </trkpt>
      <trkpt lat="43.80863" lon="5.19641">
        <ele>577</ele>
        <time>2019-09-14T09:50:36Z</time>
      </trkpt>
      <trkpt lat="43.80872" lon="5.19642">
        <ele>575</ele>
        <time>2019-09-14T09:50:50Z</time>
      </trkpt>
      <trkpt lat="43.8088" lon="5.19649">
        <ele>574</ele>
        <time>2019-09-14T09:51:18Z</time>
      </trkpt>
      <trkpt lat="43.80888" lon="5.19656">
        <ele>572</ele>
        <time>2019-09-14T09:51:31Z</time>
      </trkpt>
      <trkpt lat="43.80895" lon="5.19665">
        <ele>571</ele>
        <time>2019-09-14T09:51:47Z</time>
      </trkpt>
      <trkpt lat="43.809" lon="5.19676">
        <ele>569</ele>
        <time>2019-09-14T09:52:00Z</time>
      </trkpt>
      <trkpt lat="43.80902" lon="5.19689">
        <ele>567</ele>
        <time>2019-09-14T09:52:43Z</time>
      </trkpt>
      <trkpt lat="43.80906" lon="5.197">
        <ele>565</ele>
        <time>2019-09-14T09:53:02Z</time>
      </trkpt>
      <trkpt lat="43.80909" lon="5.19712">
        <ele>565</ele>
        <time>2019-09-14T09:53:12Z</time>
      </trkpt>
      <trkpt lat="43.80914" lon="5.19723">
        <ele>563</ele>
        <time>2019-09-14T09:53:26Z</time>
      </trkpt>
      <trkpt lat="43.80921" lon="5.19732">
        <ele>561</ele>
        <time>2019-09-14T09:53:45Z</time>
      </trkpt>
      <trkpt lat="43.80927" lon="5.19741">
        <ele>560</ele>
        <time>2019-09-14T09:53:57Z</time>
      </trkpt>
      <trkpt lat="43.80936" lon="5.19747">
        <ele>558</ele>
        <time>2019-09-14T09:54:10Z</time>
      </trkpt>
      <trkpt lat="43.80944" lon="5.19755">
        <ele>555</ele>
        <time>2019-09-14T09:54:30Z</time>
      </trkpt>
      <trkpt lat="43.80952" lon="5.19761">
        <ele>553</ele>
        <time>2019-09-14T09:54:40Z</time>
      </trkpt>
      <trkpt lat="43.80961" lon="5.19766">
        <ele>551</ele>
        <time>2019-09-14T09:54:51Z</time>
      </trkpt>
      <trkpt lat="43.80968" lon="5.19774">
        <ele>549</ele>
        <time>2019-09-14T09:55:09Z</time>
      </trkpt>
      <trkpt lat="43.80978" lon="5.19775">
        <ele>546</ele>
        <time>2019-09-14T09:55:20Z</time>
      </trkpt>
      <trkpt lat="43.80986" lon="5.19783">
        <ele>546</ele>
        <time>2019-09-14T09:55:33Z</time>
      </trkpt>
      <trkpt lat="43.80995" lon="5.19786">
        <ele>544</ele>
        <time>2019-09-14T09:55:45Z</time>
      </trkpt>
      <trkpt lat="43.81004" lon="5.19785">
        <ele>540</ele>
        <time>2019-09-14T09:56:13Z</time>
      </trkpt>
      <trkpt lat="43.81013" lon="5.19783">
        <ele>535</ele>
        <time>2019-09-14T09:56:32Z</time>
      </trkpt>
      <trkpt lat="43.81023" lon="5.19785">
        <ele>533</ele>
        <time>2019-09-14T09:56:45Z</time>
      </trkpt>
      <trkpt lat="43.81031" lon="5.19791">
        <ele>530</ele>
        <time>2019-09-14T09:56:57Z</time>
      </trkpt>
      <trkpt lat="43.81038" lon="5.19783">
        <ele>527</ele>
        <time>2019-09-14T09:57:20Z</time>
      </trkpt>
      <trkpt lat="43.81047" lon="5.19787">
        <ele>525</ele>
        <time>2019-09-14T09:57:33Z</time>
      </trkpt>
      <trkpt lat="43.81054" lon="5.19794">
        <ele>522</ele>
        <time>2019-09-14T09:57:49Z</time>
      </trkpt>
      <trkpt lat="43.81061" lon="5.19804">
        <ele>520</ele>
        <time>2019-09-14T09:58:03Z</time>
      </trkpt>
      <trkpt lat="43.81067" lon="5.19813">
        <ele>518</ele>
        <time>2019-09-14T09:58:14Z</time>
      </trkpt>
      <trkpt lat="43.81076" lon="5.19818">
        <ele>513</ele>
        <time>2019-09-14T09:59:24Z</time>
      </trkpt>
      <trkpt lat="43.81085" lon="5.19819">
        <ele>510</ele>
        <time>2019-09-14T09:59:37Z</time>
      </trkpt>
      <trkpt lat="43.81094" lon="5.19823">
        <ele>507</ele>
        <time>2019-09-14T09:59:50Z</time>
      </trkpt>
      <trkpt lat="43.81103" lon="5.19827">
        <ele>504</ele>
        <time>2019-09-14T10:00:05Z</time>
      </trkpt>
      <trkpt lat="43.81111" lon="5.19832">
        <ele>502</ele>
        <time>2019-09-14T10:00:27Z</time>
      </trkpt>
      <trkpt lat="43.81121" lon="5.19831">
        <ele>500</ele>
        <time>2019-09-14T10:00:40Z</time>
      </trkpt>
      <trkpt lat="43.81129" lon="5.19837">
        <ele>497</ele>
        <time>2019-09-14T10:00:54Z</time>
      </trkpt>
      <trkpt lat="43.81137" lon="5.19844">
        <ele>494</ele>
        <time>2019-09-14T10:01:08Z</time>
      </trkpt>
      <trkpt lat="43.81144" lon="5.19853">
        <ele>491</ele>
        <time>2019-09-14T10:01:23Z</time>
      </trkpt>
      <trkpt lat="43.81152" lon="5.19851">
        <ele>488</ele>
        <time>2019-09-14T10:01:38Z</time>
      </trkpt>
      <trkpt lat="43.81162" lon="5.19848">
        <ele>486</ele>
        <time>2019-09-14T10:01:59Z</time>
      </trkpt>
      <trkpt lat="43.81169" lon="5.19857">
        <ele>483</ele>
        <time>2019-09-14T10:02:19Z</time>
      </trkpt>
      <trkpt lat="43.81177" lon="5.1985">
        <ele>479</ele>
        <time>2019-09-14T10:02:44Z</time>
      </trkpt>
      <trkpt lat="43.81183" lon="5.1984">
        <ele>477</ele>
        <time>2019-09-14T10:03:00Z</time>
      </trkpt>
      <trkpt lat="43.81192" lon="5.19844">
        <ele>476</ele>
        <time>2019-09-14T10:03:34Z</time>
      </trkpt>
      <trkpt lat="43.81201" lon="5.19842">
        <ele>474</ele>
        <time>2019-09-14T10:03:44Z</time>
      </trkpt>
      <trkpt lat="43.8121" lon="5.19842">
        <ele>470</ele>
        <time>2019-09-14T10:04:02Z</time>
      </trkpt>
      <trkpt lat="43.81219" lon="5.19838">
        <ele>467</ele>
        <time>2019-09-14T10:04:18Z</time>
      </trkpt>
      <trkpt lat="43.81227" lon="5.19844">
        <ele>465</ele>
        <time>2019-09-14T10:04:35Z</time>
      </trkpt>
      <trkpt lat="43.81236" lon="5.19843">
        <ele>462</ele>
        <time>2019-09-14T10:04:51Z</time>
      </trkpt>
      <trkpt lat="43.81245" lon="5.19839">
        <ele>460</ele>
        <time>2019-09-14T10:05:01Z</time>
      </trkpt>
      <trkpt lat="43.81254" lon="5.19843">
        <ele>458</ele>
        <time>2019-09-14T10:05:14Z</time>
      </trkpt>
      <trkpt lat="43.81264" lon="5.19842">
        <ele>455</ele>
        <time>2019-09-14T10:05:28Z</time>
      </trkpt>
      <trkpt lat="43.81272" lon="5.19838">
        <ele>452</ele>
        <time>2019-09-14T10:05:43Z</time>
      </trkpt>
      <trkpt lat="43.81281" lon="5.19836">
        <ele>450</ele>
        <time>2019-09-14T10:05:53Z</time>
      </trkpt>
      <trkpt lat="43.81291" lon="5.19834">
        <ele>448</ele>
        <time>2019-09-14T10:06:04Z</time>
      </trkpt>
      <trkpt lat="43.813" lon="5.19833">
        <ele>445</ele>
        <time>2019-09-14T10:06:16Z</time>
      </trkpt>
      <trkpt lat="43.8131" lon="5.19831">
        <ele>443</ele>
        <time>2019-09-14T10:06:29Z</time>
      </trkpt>
      <trkpt lat="43.8132" lon="5.19831">
        <ele>441</ele>
        <time>2019-09-14T10:06:39Z</time>
      </trkpt>
      <trkpt lat="43.81329" lon="5.19827">
        <ele>439</ele>
        <time>2019-09-14T10:06:51Z</time>
      </trkpt>
      <trkpt lat="43.81335" lon="5.19819">
        <ele>437</ele>
        <time>2019-09-14T10:07:05Z</time>
      </trkpt>
      <trkpt lat="43.81343" lon="5.19812">
        <ele>435</ele>
        <time>2019-09-14T10:07:16Z</time>
      </trkpt>
      <trkpt lat="43.81353" lon="5.19815">
        <ele>433</ele>
        <time>2019-09-14T10:07:26Z</time>
      </trkpt>
      <trkpt lat="43.81362" lon="5.19819">
        <ele>432</ele>
        <time>2019-09-14T10:07:43Z</time>
      </trkpt>
      <trkpt lat="43.81365" lon="5.19831">
        <ele>430</ele>
        <time>2019-09-14T10:07:55Z</time>
      </trkpt>
      <trkpt lat="43.81367" lon="5.19844">
        <ele>428</ele>
        <time>2019-09-14T10:08:06Z</time>
      </trkpt>
      <trkpt lat="43.8137" lon="5.19856">
        <ele>426</ele>
        <time>2019-09-14T10:08:17Z</time>
      </trkpt>
      <trkpt lat="43.8137" lon="5.19869">
        <ele>425</ele>
        <time>2019-09-14T10:08:27Z</time>
      </trkpt>
      <trkpt lat="43.81368" lon="5.19881">
        <ele>424</ele>
        <time>2019-09-14T10:08:44Z</time>
      </trkpt>
      <trkpt lat="43.81377" lon="5.1988">
        <ele>420</ele>
        <time>2019-09-14T10:09:02Z</time>
      </trkpt>
      <trkpt lat="43.81385" lon="5.19871">
        <ele>419</ele>
        <time>2019-09-14T10:09:12Z</time>
      </trkpt>
      <trkpt lat="43.81392" lon="5.19863">
        <ele>418</ele>
        <time>2019-09-14T10:09:27Z</time>
      </trkpt>
      <trkpt lat="43.81399" lon="5.19855">
        <ele>416</ele>
        <time>2019-09-14T10:09:37Z</time>
      </trkpt>
      <trkpt lat="43.81406" lon="5.19847">
        <ele>414</ele>
        <time>2019-09-14T10:09:47Z</time>
      </trkpt>
      <trkpt lat="43.81414" lon="5.19841">
        <ele>413</ele>
        <time>2019-09-14T10:09:59Z</time>
      </trkpt>
      <trkpt lat="43.81423" lon="5.19846">
        <ele>409</ele>
        <time>2019-09-14T10:10:22Z</time>
      </trkpt>
      <trkpt lat="43.81431" lon="5.19852">
        <ele>406</ele>
        <time>2019-09-14T10:10:41Z</time>
      </trkpt>
      <trkpt lat="43.81436" lon="5.19842">
        <ele>403</ele>
        <time>2019-09-14T10:10:51Z</time>
      </trkpt>
      <trkpt lat="43.81442" lon="5.19832">
        <ele>401</ele>
        <time>2019-09-14T10:11:03Z</time>
      </trkpt>
      <trkpt lat="43.81448" lon="5.19822">
        <ele>399</ele>
        <time>2019-09-14T10:11:16Z</time>
      </trkpt>
      <trkpt lat="43.81456" lon="5.1983">
        <ele>398</ele>
        <time>2019-09-14T10:11:28Z</time>
      </trkpt>
      <trkpt lat="43.81463" lon="5.19838">
        <ele>396</ele>
        <time>2019-09-14T10:11:49Z</time>
      </trkpt>
      <trkpt lat="43.81467" lon="5.1985">
        <ele>392</ele>
        <time>2019-09-14T10:12:04Z</time>
      </trkpt>
      <trkpt lat="43.81468" lon="5.19863">
        <ele>388</ele>
        <time>2019-09-14T10:12:16Z</time>
      </trkpt>
      <trkpt lat="43.8147" lon="5.19875">
        <ele>387</ele>
        <time>2019-09-14T10:12:28Z</time>
      </trkpt>
      <trkpt lat="43.81479" lon="5.19877">
        <ele>386</ele>
        <time>2019-09-14T10:12:51Z</time>
      </trkpt>
      <trkpt lat="43.81489" lon="5.19876">
        <ele>383</ele>
        <time>2019-09-14T10:13:08Z</time>
      </trkpt>
      <trkpt lat="43.81498" lon="5.19873">
        <ele>380</ele>
        <time>2019-09-14T10:13:25Z</time>
      </trkpt>
      <trkpt lat="43.81507" lon="5.1987">
        <ele>379</ele>
        <time>2019-09-14T10:13:35Z</time>
      </trkpt>
      <trkpt lat="43.81516" lon="5.19866">
        <ele>377</ele>
        <time>2019-09-14T10:13:50Z</time>
      </trkpt>
      <trkpt lat="43.81517" lon="5.19879">
        <ele>373</ele>
        <time>2019-09-14T10:14:09Z</time>
      </trkpt>
      <trkpt lat="43.81524" lon="5.19888">
        <ele>367</ele>
        <time>2019-09-14T10:14:41Z</time>
      </trkpt>
      <trkpt lat="43.81531" lon="5.19898">
        <ele>365</ele>
        <time>2019-09-14T10:15:00Z</time>
      </trkpt>
      <trkpt lat="43.8154" lon="5.19897">
        <ele>358</ele>
        <time>2019-09-14T10:15:57Z</time>
      </trkpt>
      <trkpt lat="43.81548" lon="5.19892">
        <ele>358</ele>
        <time>2019-09-14T10:16:07Z</time>
      </trkpt>
      <trkpt lat="43.81558" lon="5.19888">
        <ele>355</ele>
        <time>2019-09-14T10:16:19Z</time>
      </trkpt>
      <trkpt lat="43.81566" lon="5.1988">
        <ele>355</ele>
        <time>2019-09-14T10:16:41Z</time>
      </trkpt>
      <trkpt lat="43.81573" lon="5.19872">
        <ele>352</ele>
        <time>2019-09-14T10:17:09Z</time>
      </trkpt>
      <trkpt lat="43.81584" lon="5.19869">
        <ele>350</ele>
        <time>2019-09-14T10:17:23Z</time>
      </trkpt>
      <trkpt lat="43.8159" lon="5.1986">
        <ele>347</ele>
        <time>2019-09-14T10:17:39Z</time>
      </trkpt>
      <trkpt lat="43.81598" lon="5.19855">
        <ele>349</ele>
        <time>2019-09-14T10:18:19Z</time>
      </trkpt>
      <trkpt lat="43.81606" lon="5.1986">
        <ele>340</ele>
        <time>2019-09-14T10:18:59Z</time>
      </trkpt>
      <trkpt lat="43.81614" lon="5.19853">
        <ele>339</ele>
        <time>2019-09-14T10:19:07Z</time>
      </trkpt>
      <trkpt lat="43.81622" lon="5.19845">
        <ele>336</ele>
        <time>2019-09-14T10:19:15Z</time>
      </trkpt>
      <trkpt lat="43.81631" lon="5.19838">
        <ele>334</ele>
        <time>2019-09-14T10:19:27Z</time>
      </trkpt>
      <trkpt lat="43.81635" lon="5.19825">
        <ele>332</ele>
        <time>2019-09-14T10:19:37Z</time>
      </trkpt>
      <trkpt lat="43.81645" lon="5.19829">
        <ele>328</ele>
        <time>2019-09-14T10:19:53Z</time>
      </trkpt>
      <trkpt lat="43.81657" lon="5.19829">
        <ele>327</ele>
        <time>2019-09-14T10:20:05Z</time>
      </trkpt>
      <trkpt lat="43.81669" lon="5.19828">
        <ele>327</ele>
        <time>2019-09-14T10:20:17Z</time>
      </trkpt>
      <trkpt lat="43.81678" lon="5.19824">
        <ele>325</ele>
        <time>2019-09-14T10:20:23Z</time>
      </trkpt>
      <trkpt lat="43.81687" lon="5.1983">
        <ele>323</ele>
        <time>2019-09-14T10:20:47Z</time>
      </trkpt>
      <trkpt lat="43.81694" lon="5.1982">
        <ele>318</ele>
        <time>2019-09-14T10:20:59Z</time>
      </trkpt>
      <trkpt lat="43.81686" lon="5.19812">
        <ele>315</ele>
        <time>2019-09-14T10:21:15Z</time>
      </trkpt>
      <trkpt lat="43.81682" lon="5.198">
        <ele>313</ele>
        <time>2019-09-14T10:21:35Z</time>
      </trkpt>
      <trkpt lat="43.81681" lon="5.19785">
        <ele>311</ele>
        <time>2019-09-14T10:21:47Z</time>
      </trkpt>
      <trkpt lat="43.81684" lon="5.19773">
        <ele>311</ele>
        <time>2019-09-14T10:22:07Z</time>
      </trkpt>
      <trkpt lat="43.81687" lon="5.19758">
        <ele>309</ele>
        <time>2019-09-14T10:22:17Z</time>
      </trkpt>
      <trkpt lat="43.81683" lon="5.19747">
        <ele>308</ele>
        <time>2019-09-14T10:22:23Z</time>
      </trkpt>
      <trkpt lat="43.81682" lon="5.19734">
        <ele>309</ele>
        <time>2019-09-14T10:22:33Z</time>
      </trkpt>
      <trkpt lat="43.8168" lon="5.1972">
        <ele>308</ele>
        <time>2019-09-14T10:22:41Z</time>
      </trkpt>
      <trkpt lat="43.81685" lon="5.19707">
        <ele>307</ele>
        <time>2019-09-14T10:22:51Z</time>
      </trkpt>
      <trkpt lat="43.81688" lon="5.19693">
        <ele>305</ele>
        <time>2019-09-14T10:23:01Z</time>
      </trkpt>
      <trkpt lat="43.81691" lon="5.1968">
        <ele>304</ele>
        <time>2019-09-14T10:23:13Z</time>
      </trkpt>
      <trkpt lat="43.81696" lon="5.19668">
        <ele>303</ele>
        <time>2019-09-14T10:23:21Z</time>
      </trkpt>
      <trkpt lat="43.81693" lon="5.19654">
        <ele>302</ele>
        <time>2019-09-14T10:23:29Z</time>
      </trkpt>
      <trkpt lat="43.81692" lon="5.19639">
        <ele>301</ele>
        <time>2019-09-14T10:23:39Z</time>
      </trkpt>
      <trkpt lat="43.8169" lon="5.19625">
        <ele>302</ele>
        <time>2019-09-14T10:23:57Z</time>
      </trkpt>
      <trkpt lat="43.81691" lon="5.19612">
        <ele>301</ele>
        <time>2019-09-14T10:24:07Z</time>
      </trkpt>
      <trkpt lat="43.81691" lon="5.19599">
        <ele>300</ele>
        <time>2019-09-14T10:24:19Z</time>
      </trkpt>
      <trkpt lat="43.81694" lon="5.19586">
        <ele>297</ele>
        <time>2019-09-14T10:24:33Z</time>
      </trkpt>
      <trkpt lat="43.81703" lon="5.1958">
        <ele>294</ele>
        <time>2019-09-14T10:24:49Z</time>
      </trkpt>
      <trkpt lat="43.81707" lon="5.19568">
        <ele>292</ele>
        <time>2019-09-14T10:25:05Z</time>
      </trkpt>
      <trkpt lat="43.81713" lon="5.19556">
        <ele>289</ele>
        <time>2019-09-14T10:25:21Z</time>
      </trkpt>
      <trkpt lat="43.81709" lon="5.19543">
        <ele>288</ele>
        <time>2019-09-14T10:25:39Z</time>
      </trkpt>
      <trkpt lat="43.817" lon="5.19547">
        <ele>287</ele>
        <time>2019-09-14T10:25:57Z</time>
      </trkpt>
      <trkpt lat="43.81692" lon="5.19542">
        <ele>286</ele>
        <time>2019-09-14T10:26:25Z</time>
      </trkpt>
      <trkpt lat="43.81697" lon="5.19529">
        <ele>283</ele>
        <time>2019-09-14T10:27:13Z</time>
      </trkpt>
      <trkpt lat="43.81699" lon="5.19516">
        <ele>283</ele>
        <time>2019-09-14T10:27:27Z</time>
      </trkpt>
      <trkpt lat="43.81709" lon="5.19498">
        <ele>282</ele>
        <time>2019-09-14T10:27:48Z</time>
      </trkpt>
      <trkpt lat="43.81716" lon="5.1949">
        <ele>281</ele>
        <time>2019-09-14T10:27:55Z</time>
      </trkpt>
      <trkpt lat="43.81716" lon="5.19477">
        <ele>281</ele>
        <time>2019-09-14T10:28:04Z</time>
      </trkpt>
      <trkpt lat="43.81721" lon="5.19466">
        <ele>279</ele>
        <time>2019-09-14T10:28:16Z</time>
      </trkpt>
      <trkpt lat="43.81723" lon="5.19453">
        <ele>279</ele>
        <time>2019-09-14T10:28:37Z</time>
      </trkpt>
      <trkpt lat="43.81723" lon="5.19439">
        <ele>278</ele>
        <time>2019-09-14T10:28:46Z</time>
      </trkpt>
      <trkpt lat="43.81721" lon="5.19427">
        <ele>277</ele>
        <time>2019-09-14T10:28:58Z</time>
      </trkpt>
      <trkpt lat="43.81713" lon="5.19411">
        <ele>275</ele>
        <time>2019-09-14T10:29:37Z</time>
      </trkpt>
      <trkpt lat="43.81714" lon="5.19399">
        <ele>274</ele>
        <time>2019-09-14T10:29:48Z</time>
      </trkpt>
      <trkpt lat="43.81723" lon="5.19396">
        <ele>274</ele>
        <time>2019-09-14T10:29:56Z</time>
      </trkpt>
      <trkpt lat="43.81717" lon="5.19386">
        <ele>274</ele>
        <time>2019-09-14T10:30:03Z</time>
      </trkpt>
      <trkpt lat="43.81715" lon="5.19373">
        <ele>273</ele>
        <time>2019-09-14T10:30:11Z</time>
      </trkpt>
      <trkpt lat="43.81715" lon="5.19359">
        <ele>273</ele>
        <time>2019-09-14T10:30:19Z</time>
      </trkpt>
      <trkpt lat="43.81717" lon="5.19347">
        <ele>272</ele>
        <time>2019-09-14T10:30:28Z</time>
      </trkpt>
      <trkpt lat="43.81716" lon="5.19334">
        <ele>271</ele>
        <time>2019-09-14T10:30:37Z</time>
      </trkpt>
      <trkpt lat="43.81717" lon="5.19321">
        <ele>270</ele>
        <time>2019-09-14T10:30:46Z</time>
      </trkpt>
      <trkpt lat="43.81718" lon="5.19308">
        <ele>270</ele>
        <time>2019-09-14T10:31:00Z</time>
      </trkpt>
      <trkpt lat="43.81721" lon="5.19295">
        <ele>270</ele>
        <time>2019-09-14T10:31:10Z</time>
      </trkpt>
      <trkpt lat="43.81729" lon="5.19287">
        <ele>270</ele>
        <time>2019-09-14T10:31:22Z</time>
      </trkpt>
      <trkpt lat="43.81729" lon="5.19275">
        <ele>269</ele>
        <time>2019-09-14T10:31:30Z</time>
      </trkpt>
      <trkpt lat="43.81726" lon="5.19263">
        <ele>267</ele>
        <time>2019-09-14T10:31:47Z</time>
      </trkpt>
      <trkpt lat="43.81732" lon="5.19252">
        <ele>265</ele>
        <time>2019-09-14T10:31:56Z</time>
      </trkpt>
      <trkpt lat="43.81738" lon="5.19241">
        <ele>265</ele>
        <time>2019-09-14T10:32:06Z</time>
      </trkpt>
      <trkpt lat="43.81747" lon="5.19235">
        <ele>265</ele>
        <time>2019-09-14T10:32:13Z</time>
      </trkpt>
      <trkpt lat="43.81753" lon="5.19226">
        <ele>264</ele>
        <time>2019-09-14T10:32:22Z</time>
      </trkpt>
      <trkpt lat="43.81752" lon="5.19212">
        <ele>264</ele>
        <time>2019-09-14T10:32:29Z</time>
      </trkpt>
      <trkpt lat="43.81754" lon="5.19199">
        <ele>263</ele>
        <time>2019-09-14T10:32:37Z</time>
      </trkpt>
      <trkpt lat="43.81757" lon="5.19187">
        <ele>263</ele>
        <time>2019-09-14T10:32:45Z</time>
      </trkpt>
      <trkpt lat="43.81759" lon="5.19175">
        <ele>263</ele>
        <time>2019-09-14T10:32:53Z</time>
      </trkpt>
      <trkpt lat="43.81765" lon="5.19164">
        <ele>261</ele>
        <time>2019-09-14T10:33:01Z</time>
      </trkpt>
      <trkpt lat="43.81769" lon="5.19152">
        <ele>261</ele>
        <time>2019-09-14T10:33:09Z</time>
      </trkpt>
      <trkpt lat="43.81776" lon="5.19143">
        <ele>260</ele>
        <time>2019-09-14T10:33:18Z</time>
      </trkpt>
      <trkpt lat="43.81778" lon="5.1913">
        <ele>259</ele>
        <time>2019-09-14T10:33:27Z</time>
      </trkpt>
      <trkpt lat="43.81779" lon="5.19117">
        <ele>257</ele>
        <time>2019-09-14T10:33:37Z</time>
      </trkpt>
      <trkpt lat="43.81779" lon="5.19103">
        <ele>257</ele>
        <time>2019-09-14T10:33:47Z</time>
      </trkpt>
      <trkpt lat="43.81784" lon="5.19091">
        <ele>256</ele>
        <time>2019-09-14T10:33:57Z</time>
      </trkpt>
      <trkpt lat="43.81789" lon="5.1908">
        <ele>255</ele>
        <time>2019-09-14T10:34:06Z</time>
      </trkpt>
      <trkpt lat="43.81791" lon="5.19067">
        <ele>253</ele>
        <time>2019-09-14T10:34:15Z</time>
      </trkpt>
      <trkpt lat="43.81795" lon="5.19056">
        <ele>252</ele>
        <time>2019-09-14T10:34:23Z</time>
      </trkpt>
      <trkpt lat="43.81802" lon="5.19047">
        <ele>251</ele>
        <time>2019-09-14T10:34:31Z</time>
      </trkpt>
      <trkpt lat="43.81805" lon="5.19034">
        <ele>251</ele>
        <time>2019-09-14T10:34:39Z</time>
      </trkpt>
      <trkpt lat="43.81807" lon="5.1902">
        <ele>250</ele>
        <time>2019-09-14T10:34:48Z</time>
      </trkpt>
      <trkpt lat="43.81816" lon="5.19017">
        <ele>250</ele>
        <time>2019-09-14T10:34:57Z</time>
      </trkpt>
      <trkpt lat="43.81825" lon="5.19016">
        <ele>250</ele>
        <time>2019-09-14T10:35:11Z</time>
      </trkpt>
      <trkpt lat="43.81833" lon="5.19008">
        <ele>249</ele>
        <time>2019-09-14T10:35:20Z</time>
      </trkpt>
      <trkpt lat="43.8184" lon="5.18998">
        <ele>248</ele>
        <time>2019-09-14T10:35:29Z</time>
      </trkpt>
      <trkpt lat="43.81846" lon="5.18989">
        <ele>247</ele>
        <time>2019-09-14T10:35:38Z</time>
      </trkpt>
      <trkpt lat="43.81854" lon="5.18981">
        <ele>246</ele>
        <time>2019-09-14T10:35:46Z</time>
      </trkpt>
      <trkpt lat="43.81862" lon="5.18975">
        <ele>245</ele>
        <time>2019-09-14T10:35:53Z</time>
      </trkpt>
      <trkpt lat="43.81869" lon="5.18966">
        <ele>244</ele>
        <time>2019-09-14T10:36:03Z</time>
      </trkpt>
      <trkpt lat="43.81879" lon="5.18964">
        <ele>245</ele>
        <time>2019-09-14T10:36:12Z</time>
      </trkpt>
      <trkpt lat="43.81889" lon="5.18964">
        <ele>245</ele>
        <time>2019-09-14T10:36:19Z</time>
      </trkpt>
      <trkpt lat="43.81898" lon="5.1896">
        <ele>244</ele>
        <time>2019-09-14T10:36:27Z</time>
      </trkpt>
      <trkpt lat="43.81904" lon="5.18951">
        <ele>243</ele>
        <time>2019-09-14T10:36:37Z</time>
      </trkpt>
      <trkpt lat="43.8191" lon="5.1894">
        <ele>243</ele>
        <time>2019-09-14T10:36:46Z</time>
      </trkpt>
      <trkpt lat="43.81911" lon="5.18927">
        <ele>242</ele>
        <time>2019-09-14T10:36:54Z</time>
      </trkpt>
      <trkpt lat="43.81916" lon="5.18915">
        <ele>242</ele>
        <time>2019-09-14T10:37:03Z</time>
      </trkpt>
      <trkpt lat="43.81921" lon="5.18904">
        <ele>242</ele>
        <time>2019-09-14T10:37:10Z</time>
      </trkpt>
      <trkpt lat="43.81926" lon="5.18893">
        <ele>243</ele>
        <time>2019-09-14T10:37:19Z</time>
      </trkpt>
      <trkpt lat="43.81926" lon="5.18881">
        <ele>242</ele>
        <time>2019-09-14T10:37:28Z</time>
      </trkpt>
      <trkpt lat="43.81928" lon="5.18869">
        <ele>241</ele>
        <time>2019-09-14T10:37:39Z</time>
      </trkpt>
      <trkpt lat="43.81934" lon="5.18858">
        <ele>241</ele>
        <time>2019-09-14T10:37:49Z</time>
      </trkpt>
      <trkpt lat="43.81937" lon="5.18846">
        <ele>241</ele>
        <time>2019-09-14T10:37:55Z</time>
      </trkpt>
      <trkpt lat="43.81944" lon="5.18836">
        <ele>240</ele>
        <time>2019-09-14T10:38:04Z</time>
      </trkpt>
      <trkpt lat="43.81948" lon="5.18824">
        <ele>240</ele>
        <time>2019-09-14T10:38:13Z</time>
      </trkpt>
      <trkpt lat="43.81959" lon="5.18821">
        <ele>239</ele>
        <time>2019-09-14T10:39:04Z</time>
      </trkpt>
      <trkpt lat="43.81953" lon="5.18808">
        <ele>239</ele>
        <time>2019-09-14T10:39:22Z</time>
      </trkpt>
      <trkpt lat="43.81948" lon="5.18797">
        <ele>238</ele>
        <time>2019-09-14T10:39:30Z</time>
      </trkpt>
      <trkpt lat="43.81942" lon="5.18786">
        <ele>239</ele>
        <time>2019-09-14T10:39:46Z</time>
      </trkpt>
      <trkpt lat="43.81936" lon="5.18775">
        <ele>238</ele>
        <time>2019-09-14T10:39:58Z</time>
      </trkpt>
      <trkpt lat="43.81933" lon="5.1876">
        <ele>238</ele>
        <time>2019-09-14T10:40:10Z</time>
      </trkpt>
      <trkpt lat="43.81935" lon="5.18747">
        <ele>240</ele>
        <time>2019-09-14T10:40:30Z</time>
      </trkpt>
      <trkpt lat="43.81925" lon="5.18745">
        <ele>243</ele>
        <time>2019-09-14T10:41:08Z</time>
      </trkpt>
      <trkpt lat="43.81914" lon="5.18747">
        <ele>242</ele>
        <time>2019-09-14T10:41:36Z</time>
      </trkpt>
      <trkpt lat="43.81905" lon="5.18745">
        <ele>244</ele>
        <time>2019-09-14T10:41:58Z</time>
      </trkpt>
      <trkpt lat="43.81897" lon="5.18738">
        <ele>245</ele>
        <time>2019-09-14T10:42:22Z</time>
      </trkpt>
      <trkpt lat="43.81897" lon="5.18725">
        <ele>245</ele>
        <time>2019-09-14T10:43:08Z</time>
      </trkpt>
      <trkpt lat="43.81903" lon="5.18715">
        <ele>247</ele>
        <time>2019-09-14T10:43:32Z</time>
      </trkpt>
      <trkpt lat="43.81906" lon="5.18702">
        <ele>250</ele>
        <time>2019-09-14T10:44:16Z</time>
      </trkpt>
      <trkpt lat="43.81904" lon="5.18689">
        <ele>253</ele>
        <time>2019-09-14T10:44:38Z</time>
      </trkpt>
      <trkpt lat="43.81903" lon="5.18676">
        <ele>258</ele>
        <time>2019-09-14T10:44:54Z</time>
      </trkpt>
      <trkpt lat="43.81897" lon="5.18667">
        <ele>261</ele>
        <time>2019-09-14T10:45:30Z</time>
      </trkpt>
      <trkpt lat="43.81902" lon="5.18657">
        <ele>265</ele>
        <time>2019-09-14T10:45:48Z</time>
      </trkpt>
      <trkpt lat="43.819" lon="5.18644">
        <ele>265</ele>
        <time>2019-09-14T10:46:06Z</time>
      </trkpt>
      <trkpt lat="43.81899" lon="5.18632">
        <ele>265</ele>
        <time>2019-09-14T10:46:20Z</time>
      </trkpt>
      <trkpt lat="43.81903" lon="5.18619">
        <ele>267</ele>
        <time>2019-09-14T10:46:44Z</time>
      </trkpt>
      <trkpt lat="43.81901" lon="5.18606">
        <ele>270</ele>
        <time>2019-09-14T10:46:58Z</time>
      </trkpt>
      <trkpt lat="43.81906" lon="5.18594">
        <ele>272</ele>
        <time>2019-09-14T10:47:14Z</time>
      </trkpt>
      <trkpt lat="43.81902" lon="5.18583">
        <ele>274</ele>
        <time>2019-09-14T10:47:32Z</time>
      </trkpt>
      <trkpt lat="43.81912" lon="5.18579">
        <ele>274</ele>
        <time>2019-09-14T10:47:48Z</time>
      </trkpt>
      <trkpt lat="43.81901" lon="5.18578">
        <ele>276</ele>
        <time>2019-09-14T10:47:56Z</time>
      </trkpt>
      <trkpt lat="43.81914" lon="5.1858">
        <ele>278</ele>
        <time>2019-09-14T10:48:38Z</time>
      </trkpt>
      <trkpt lat="43.8191" lon="5.18569">
        <ele>280</ele>
        <time>2019-09-14T10:48:48Z</time>
      </trkpt>
      <trkpt lat="43.81901" lon="5.18569">
        <ele>286</ele>
        <time>2019-09-14T10:50:12Z</time>
      </trkpt>
      <trkpt lat="43.81903" lon="5.18556">
        <ele>288</ele>
        <time>2019-09-14T10:50:52Z</time>
      </trkpt>
      <trkpt lat="43.81907" lon="5.18542">
        <ele>287</ele>
        <time>2019-09-14T10:51:06Z</time>
      </trkpt>
      <trkpt lat="43.81907" lon="5.18529">
        <ele>287</ele>
        <time>2019-09-14T10:51:14Z</time>
      </trkpt>
      <trkpt lat="43.81913" lon="5.18519">
        <ele>287</ele>
        <time>2019-09-14T10:51:26Z</time>
      </trkpt>
      <trkpt lat="43.81917" lon="5.18507">
        <ele>286</ele>
        <time>2019-09-14T10:51:36Z</time>
      </trkpt>
      <trkpt lat="43.8192" lon="5.18495">
        <ele>286</ele>
        <time>2019-09-14T10:51:46Z</time>
      </trkpt>
      <trkpt lat="43.81928" lon="5.18487">
        <ele>286</ele>
        <time>2019-09-14T10:51:58Z</time>
      </trkpt>
      <trkpt lat="43.81932" lon="5.18475">
        <ele>284</ele>
        <time>2019-09-14T10:52:08Z</time>
      </trkpt>
      <trkpt lat="43.81936" lon="5.1846">
        <ele>284</ele>
        <time>2019-09-14T10:52:20Z</time>
      </trkpt>
      <trkpt lat="43.81944" lon="5.18449">
        <ele>284</ele>
        <time>2019-09-14T10:52:32Z</time>
      </trkpt>
      <trkpt lat="43.81944" lon="5.18434">
        <ele>283</ele>
        <time>2019-09-14T10:52:44Z</time>
      </trkpt>
      <trkpt lat="43.81946" lon="5.1842">
        <ele>283</ele>
        <time>2019-09-14T10:52:52Z</time>
      </trkpt>
      <trkpt lat="43.81954" lon="5.18412">
        <ele>281</ele>
        <time>2019-09-14T10:53:08Z</time>
      </trkpt>
      <trkpt lat="43.8196" lon="5.18402">
        <ele>280</ele>
        <time>2019-09-14T10:53:20Z</time>
      </trkpt>
      <trkpt lat="43.81965" lon="5.18391">
        <ele>277</ele>
        <time>2019-09-14T10:53:36Z</time>
      </trkpt>
      <trkpt lat="43.81962" lon="5.18376">
        <ele>274</ele>
        <time>2019-09-14T10:54:20Z</time>
      </trkpt>
      <trkpt lat="43.8196" lon="5.18363">
        <ele>270</ele>
        <time>2019-09-14T10:54:41Z</time>
      </trkpt>
      <trkpt lat="43.8196" lon="5.18346">
        <ele>267</ele>
        <time>2019-09-14T10:55:08Z</time>
      </trkpt>
      <trkpt lat="43.81964" lon="5.18335">
        <ele>263</ele>
        <time>2019-09-14T10:55:34Z</time>
      </trkpt>
      <trkpt lat="43.81959" lon="5.18324">
        <ele>262</ele>
        <time>2019-09-14T10:55:50Z</time>
      </trkpt>
      <trkpt lat="43.81967" lon="5.18317">
        <ele>259</ele>
        <time>2019-09-14T10:56:02Z</time>
      </trkpt>
      <trkpt lat="43.81974" lon="5.18307">
        <ele>255</ele>
        <time>2019-09-14T10:56:25Z</time>
      </trkpt>
      <trkpt lat="43.81983" lon="5.18306">
        <ele>253</ele>
        <time>2019-09-14T10:56:38Z</time>
      </trkpt>
      <trkpt lat="43.8199" lon="5.18299">
        <ele>251</ele>
        <time>2019-09-14T10:56:52Z</time>
      </trkpt>
      <trkpt lat="43.81998" lon="5.18291">
        <ele>249</ele>
        <time>2019-09-14T10:57:04Z</time>
      </trkpt>
      <trkpt lat="43.81997" lon="5.18278">
        <ele>247</ele>
        <time>2019-09-14T10:57:21Z</time>
      </trkpt>
      <trkpt lat="43.82004" lon="5.18268">
        <ele>247</ele>
        <time>2019-09-14T10:57:30Z</time>
      </trkpt>
      <trkpt lat="43.82009" lon="5.18256">
        <ele>246</ele>
        <time>2019-09-14T10:57:38Z</time>
      </trkpt>
      <trkpt lat="43.82014" lon="5.18244">
        <ele>245</ele>
        <time>2019-09-14T10:57:48Z</time>
      </trkpt>
      <trkpt lat="43.82018" lon="5.18233">
        <ele>243</ele>
        <time>2019-09-14T10:57:56Z</time>
      </trkpt>
      <trkpt lat="43.82024" lon="5.18223">
        <ele>242</ele>
        <time>2019-09-14T10:58:04Z</time>
      </trkpt>
      <trkpt lat="43.8203" lon="5.18212">
        <ele>240</ele>
        <time>2019-09-14T10:58:12Z</time>
      </trkpt>
      <trkpt lat="43.82037" lon="5.18201">
        <ele>239</ele>
        <time>2019-09-14T10:58:21Z</time>
      </trkpt>
      <trkpt lat="43.82042" lon="5.18191">
        <ele>238</ele>
        <time>2019-09-14T10:58:30Z</time>
      </trkpt>
      <trkpt lat="43.82048" lon="5.18181">
        <ele>238</ele>
        <time>2019-09-14T10:58:38Z</time>
      </trkpt>
      <trkpt lat="43.82053" lon="5.1817">
        <ele>237</ele>
        <time>2019-09-14T10:58:47Z</time>
      </trkpt>
      <trkpt lat="43.82059" lon="5.1816">
        <ele>236</ele>
        <time>2019-09-14T10:58:55Z</time>
      </trkpt>
      <trkpt lat="43.82066" lon="5.1815">
        <ele>236</ele>
        <time>2019-09-14T10:59:03Z</time>
      </trkpt>
      <trkpt lat="43.82072" lon="5.18139">
        <ele>235</ele>
        <time>2019-09-14T10:59:12Z</time>
      </trkpt>
      <trkpt lat="43.82078" lon="5.18129">
        <ele>235</ele>
        <time>2019-09-14T10:59:21Z</time>
      </trkpt>
      <trkpt lat="43.82085" lon="5.18119">
        <ele>235</ele>
        <time>2019-09-14T10:59:29Z</time>
      </trkpt>
      <trkpt lat="43.82092" lon="5.18112">
        <ele>234</ele>
        <time>2019-09-14T10:59:38Z</time>
      </trkpt>
      <trkpt lat="43.82098" lon="5.18102">
        <ele>234</ele>
        <time>2019-09-14T10:59:47Z</time>
      </trkpt>
      <trkpt lat="43.82106" lon="5.18095">
        <ele>234</ele>
        <time>2019-09-14T10:59:55Z</time>
      </trkpt>
      <trkpt lat="43.82114" lon="5.18087">
        <ele>233</ele>
        <time>2019-09-14T11:00:06Z</time>
      </trkpt>
      <trkpt lat="43.82122" lon="5.18081">
        <ele>232</ele>
        <time>2019-09-14T11:00:15Z</time>
      </trkpt>
      <trkpt lat="43.82127" lon="5.18069">
        <ele>233</ele>
        <time>2019-09-14T11:00:24Z</time>
      </trkpt>
      <trkpt lat="43.82133" lon="5.18059">
        <ele>232</ele>
        <time>2019-09-14T11:00:32Z</time>
      </trkpt>
      <trkpt lat="43.82138" lon="5.18049">
        <ele>232</ele>
        <time>2019-09-14T11:00:41Z</time>
      </trkpt>
      <trkpt lat="43.82144" lon="5.18038">
        <ele>232</ele>
        <time>2019-09-14T11:00:49Z</time>
      </trkpt>
      <trkpt lat="43.8215" lon="5.18028">
        <ele>232</ele>
        <time>2019-09-14T11:00:59Z</time>
      </trkpt>
      <trkpt lat="43.82156" lon="5.18017">
        <ele>232</ele>
        <time>2019-09-14T11:01:08Z</time>
      </trkpt>
      <trkpt lat="43.82161" lon="5.18007">
        <ele>230</ele>
        <time>2019-09-14T11:01:18Z</time>
      </trkpt>
      <trkpt lat="43.82167" lon="5.17998">
        <ele>229</ele>
        <time>2019-09-14T11:01:26Z</time>
      </trkpt>
      <trkpt lat="43.82175" lon="5.17992">
        <ele>228</ele>
        <time>2019-09-14T11:01:35Z</time>
      </trkpt>
      <trkpt lat="43.82183" lon="5.17985">
        <ele>227</ele>
        <time>2019-09-14T11:01:44Z</time>
      </trkpt>
      <trkpt lat="43.82189" lon="5.17975">
        <ele>226</ele>
        <time>2019-09-14T11:01:55Z</time>
      </trkpt>
      <trkpt lat="43.82181" lon="5.17957">
        <ele>225</ele>
        <time>2019-09-14T11:02:35Z</time>
      </trkpt>
      <trkpt lat="43.82174" lon="5.17948">
        <ele>225</ele>
        <time>2019-09-14T11:02:46Z</time>
      </trkpt>
      <trkpt lat="43.82169" lon="5.17936">
        <ele>225</ele>
        <time>2019-09-14T11:02:56Z</time>
      </trkpt>
      <trkpt lat="43.82164" lon="5.17924">
        <ele>225</ele>
        <time>2019-09-14T11:03:04Z</time>
      </trkpt>
      <trkpt lat="43.82157" lon="5.17915">
        <ele>226</ele>
        <time>2019-09-14T11:03:13Z</time>
      </trkpt>
      <trkpt lat="43.82152" lon="5.17904">
        <ele>225</ele>
        <time>2019-09-14T11:03:24Z</time>
      </trkpt>
      <trkpt lat="43.82148" lon="5.17892">
        <ele>225</ele>
        <time>2019-09-14T11:03:34Z</time>
      </trkpt>
      <trkpt lat="43.82146" lon="5.17879">
        <ele>225</ele>
        <time>2019-09-14T11:03:44Z</time>
      </trkpt>
      <trkpt lat="43.82145" lon="5.17866">
        <ele>226</ele>
        <time>2019-09-14T11:03:52Z</time>
      </trkpt>
      <trkpt lat="43.82143" lon="5.17853">
        <ele>226</ele>
        <time>2019-09-14T11:04:02Z</time>
      </trkpt>
      <trkpt lat="43.82141" lon="5.17841">
        <ele>226</ele>
        <time>2019-09-14T11:04:11Z</time>
      </trkpt>
      <trkpt lat="43.82141" lon="5.17828">
        <ele>226</ele>
        <time>2019-09-14T11:04:20Z</time>
      </trkpt>
      <trkpt lat="43.82136" lon="5.17817">
        <ele>226</ele>
        <time>2019-09-14T11:04:35Z</time>
      </trkpt>
      <trkpt lat="43.82129" lon="5.17807">
        <ele>227</ele>
        <time>2019-09-14T11:04:46Z</time>
      </trkpt>
      <trkpt lat="43.82123" lon="5.17798">
        <ele>229</ele>
        <time>2019-09-14T11:05:00Z</time>
      </trkpt>
      <trkpt lat="43.82125" lon="5.1778">
        <ele>229</ele>
        <time>2019-09-14T11:05:19Z</time>
      </trkpt>
      <trkpt lat="43.82128" lon="5.17767">
        <ele>228</ele>
        <time>2019-09-14T11:05:30Z</time>
      </trkpt>
      <trkpt lat="43.82136" lon="5.17759">
        <ele>230</ele>
        <time>2019-09-14T11:05:44Z</time>
      </trkpt>
      <trkpt lat="43.82142" lon="5.17751">
        <ele>231</ele>
        <time>2019-09-14T11:05:56Z</time>
      </trkpt>
      <trkpt lat="43.82145" lon="5.17739">
        <ele>230</ele>
        <time>2019-09-14T11:06:19Z</time>
      </trkpt>
      <trkpt lat="43.82146" lon="5.17726">
        <ele>234</ele>
        <time>2019-09-14T11:06:35Z</time>
      </trkpt>
      <trkpt lat="43.82149" lon="5.17714">
        <ele>234</ele>
        <time>2019-09-14T11:06:53Z</time>
      </trkpt>
      <trkpt lat="43.82148" lon="5.17701">
        <ele>237</ele>
        <time>2019-09-14T11:07:10Z</time>
      </trkpt>
      <trkpt lat="43.8215" lon="5.17689">
        <ele>241</ele>
        <time>2019-09-14T11:07:30Z</time>
      </trkpt>
      <trkpt lat="43.82152" lon="5.17676">
        <ele>244</ele>
        <time>2019-09-14T11:07:47Z</time>
      </trkpt>
      <trkpt lat="43.82155" lon="5.17664">
        <ele>247</ele>
        <time>2019-09-14T11:08:07Z</time>
      </trkpt>
      <trkpt lat="43.82155" lon="5.17651">
        <ele>250</ele>
        <time>2019-09-14T11:08:31Z</time>
      </trkpt>
      <trkpt lat="43.82156" lon="5.17638">
        <ele>254</ele>
        <time>2019-09-14T11:08:50Z</time>
      </trkpt>
      <trkpt lat="43.82158" lon="5.17625">
        <ele>255</ele>
        <time>2019-09-14T11:09:06Z</time>
      </trkpt>
      <trkpt lat="43.82161" lon="5.17612">
        <ele>260</ele>
        <time>2019-09-14T11:09:26Z</time>
      </trkpt>
      <trkpt lat="43.82168" lon="5.17604">
        <ele>262</ele>
        <time>2019-09-14T11:09:43Z</time>
      </trkpt>
      <trkpt lat="43.8217" lon="5.17591">
        <ele>264</ele>
        <time>2019-09-14T11:10:08Z</time>
      </trkpt>
      <trkpt lat="43.82174" lon="5.1758">
        <ele>268</ele>
        <time>2019-09-14T11:10:39Z</time>
      </trkpt>
      <trkpt lat="43.82178" lon="5.17568">
        <ele>272</ele>
        <time>2019-09-14T11:11:01Z</time>
      </trkpt>
      <trkpt lat="43.82178" lon="5.17556">
        <ele>275</ele>
        <time>2019-09-14T11:11:24Z</time>
      </trkpt>
      <trkpt lat="43.82179" lon="5.17542">
        <ele>279</ele>
        <time>2019-09-14T11:11:48Z</time>
      </trkpt>
      <trkpt lat="43.82179" lon="5.1753">
        <ele>282</ele>
        <time>2019-09-14T11:12:03Z</time>
      </trkpt>
      <trkpt lat="43.82186" lon="5.17507">
        <ele>287</ele>
        <time>2019-09-14T11:12:30Z</time>
      </trkpt>
      <trkpt lat="43.82192" lon="5.17496">
        <ele>287</ele>
        <time>2019-09-14T11:12:40Z</time>
      </trkpt>
      <trkpt lat="43.82198" lon="5.17486">
        <ele>287</ele>
        <time>2019-09-14T11:12:49Z</time>
      </trkpt>
      <trkpt lat="43.82204" lon="5.17477">
        <ele>288</ele>
        <time>2019-09-14T11:12:59Z</time>
      </trkpt>
      <trkpt lat="43.82209" lon="5.17464">
        <ele>289</ele>
        <time>2019-09-14T11:13:13Z</time>
      </trkpt>
      <trkpt lat="43.82213" lon="5.17452">
        <ele>288</ele>
        <time>2019-09-14T11:13:25Z</time>
      </trkpt>
      <trkpt lat="43.82219" lon="5.17443">
        <ele>287</ele>
        <time>2019-09-14T11:13:33Z</time>
      </trkpt>
      <trkpt lat="43.82225" lon="5.17432">
        <ele>285</ele>
        <time>2019-09-14T11:13:49Z</time>
      </trkpt>
      <trkpt lat="43.82232" lon="5.17424">
        <ele>285</ele>
        <time>2019-09-14T11:14:00Z</time>
      </trkpt>
      <trkpt lat="43.82237" lon="5.17412">
        <ele>285</ele>
        <time>2019-09-14T11:14:15Z</time>
      </trkpt>
      <trkpt lat="43.82243" lon="5.17401">
        <ele>283</ele>
        <time>2019-09-14T11:14:26Z</time>
      </trkpt>
      <trkpt lat="43.82248" lon="5.17391">
        <ele>280</ele>
        <time>2019-09-14T11:14:36Z</time>
      </trkpt>
      <trkpt lat="43.82254" lon="5.17381">
        <ele>278</ele>
        <time>2019-09-14T11:14:47Z</time>
      </trkpt>
      <trkpt lat="43.8226" lon="5.17371">
        <ele>277</ele>
        <time>2019-09-14T11:15:04Z</time>
      </trkpt>
      <trkpt lat="43.82262" lon="5.17358">
        <ele>275</ele>
        <time>2019-09-14T11:15:18Z</time>
      </trkpt>
      <trkpt lat="43.82264" lon="5.17345">
        <ele>273</ele>
        <time>2019-09-14T11:15:32Z</time>
      </trkpt>
      <trkpt lat="43.82269" lon="5.17334">
        <ele>270</ele>
        <time>2019-09-14T11:15:49Z</time>
      </trkpt>
      <trkpt lat="43.82272" lon="5.17322">
        <ele>268</ele>
        <time>2019-09-14T11:16:55Z</time>
      </trkpt>
      <trkpt lat="43.82275" lon="5.1731">
        <ele>266</ele>
        <time>2019-09-14T11:17:09Z</time>
      </trkpt>
      <trkpt lat="43.82283" lon="5.17287">
        <ele>261</ele>
        <time>2019-09-14T11:17:32Z</time>
      </trkpt>
      <trkpt lat="43.82287" lon="5.17276">
        <ele>259</ele>
        <time>2019-09-14T11:17:45Z</time>
      </trkpt>
      <trkpt lat="43.82293" lon="5.17264">
        <ele>258</ele>
        <time>2019-09-14T11:17:57Z</time>
      </trkpt>
      <trkpt lat="43.82296" lon="5.17252">
        <ele>256</ele>
        <time>2019-09-14T11:18:06Z</time>
      </trkpt>
      <trkpt lat="43.823" lon="5.1724">
        <ele>254</ele>
        <time>2019-09-14T11:18:17Z</time>
      </trkpt>
      <trkpt lat="43.82307" lon="5.17231">
        <ele>253</ele>
        <time>2019-09-14T11:18:26Z</time>
      </trkpt>
      <trkpt lat="43.82312" lon="5.1722">
        <ele>251</ele>
        <time>2019-09-14T11:18:36Z</time>
      </trkpt>
      <trkpt lat="43.82315" lon="5.17207">
        <ele>250</ele>
        <time>2019-09-14T11:18:46Z</time>
      </trkpt>
      <trkpt lat="43.82317" lon="5.17194">
        <ele>250</ele>
        <time>2019-09-14T11:18:57Z</time>
      </trkpt>
      <trkpt lat="43.82317" lon="5.17182">
        <ele>249</ele>
        <time>2019-09-14T11:19:07Z</time>
      </trkpt>
      <trkpt lat="43.82321" lon="5.17169">
        <ele>248</ele>
        <time>2019-09-14T11:19:20Z</time>
      </trkpt>
      <trkpt lat="43.82321" lon="5.17156">
        <ele>248</ele>
        <time>2019-09-14T11:19:33Z</time>
      </trkpt>
      <trkpt lat="43.82323" lon="5.17143">
        <ele>247</ele>
        <time>2019-09-14T11:19:43Z</time>
      </trkpt>
      <trkpt lat="43.82327" lon="5.1713">
        <ele>246</ele>
        <time>2019-09-14T11:19:53Z</time>
      </trkpt>
      <trkpt lat="43.82331" lon="5.1712">
        <ele>245</ele>
        <time>2019-09-14T11:20:19Z</time>
      </trkpt>
      <trkpt lat="43.8234" lon="5.17111">
        <ele>244</ele>
        <time>2019-09-14T11:20:34Z</time>
      </trkpt>
      <trkpt lat="43.82347" lon="5.17101">
        <ele>245</ele>
        <time>2019-09-14T11:20:46Z</time>
      </trkpt>
      <trkpt lat="43.82356" lon="5.171">
        <ele>245</ele>
        <time>2019-09-14T11:20:55Z</time>
      </trkpt>
      <trkpt lat="43.82365" lon="5.17105">
        <ele>243</ele>
        <time>2019-09-14T11:21:05Z</time>
      </trkpt>
      <trkpt lat="43.82375" lon="5.17106">
        <ele>243</ele>
        <time>2019-09-14T11:21:16Z</time>
      </trkpt>
      <trkpt lat="43.82384" lon="5.17107">
        <ele>243</ele>
        <time>2019-09-14T11:21:28Z</time>
      </trkpt>
      <trkpt lat="43.82393" lon="5.17107">
        <ele>243</ele>
        <time>2019-09-14T11:21:38Z</time>
      </trkpt>
      <trkpt lat="43.82402" lon="5.17108">
        <ele>244</ele>
        <time>2019-09-14T11:21:50Z</time>
      </trkpt>
      <trkpt lat="43.82412" lon="5.17111">
        <ele>246</ele>
        <time>2019-09-14T11:21:59Z</time>
      </trkpt>
      <trkpt lat="43.82421" lon="5.17113">
        <ele>246</ele>
        <time>2019-09-14T11:22:08Z</time>
      </trkpt>
      <trkpt lat="43.8243" lon="5.17114">
        <ele>246</ele>
        <time>2019-09-14T11:22:20Z</time>
      </trkpt>
      <trkpt lat="43.82438" lon="5.17117">
        <ele>248</ele>
        <time>2019-09-14T11:22:33Z</time>
      </trkpt>
      <trkpt lat="43.82447" lon="5.17125">
        <ele>248</ele>
        <time>2019-09-14T11:22:45Z</time>
      </trkpt>
      <trkpt lat="43.82456" lon="5.17128">
        <ele>248</ele>
        <time>2019-09-14T11:22:53Z</time>
      </trkpt>
      <trkpt lat="43.82465" lon="5.17132">
        <ele>249</ele>
        <time>2019-09-14T11:23:03Z</time>
      </trkpt>
      <trkpt lat="43.82474" lon="5.17134">
        <ele>250</ele>
        <time>2019-09-14T11:23:14Z</time>
      </trkpt>
      <trkpt lat="43.82484" lon="5.17135">
        <ele>252</ele>
        <time>2019-09-14T11:23:25Z</time>
      </trkpt>
      <trkpt lat="43.82493" lon="5.1714">
        <ele>250</ele>
        <time>2019-09-14T11:23:33Z</time>
      </trkpt>
      <trkpt lat="43.82502" lon="5.17144">
        <ele>251</ele>
        <time>2019-09-14T11:23:43Z</time>
      </trkpt>
      <trkpt lat="43.82509" lon="5.1715">
        <ele>251</ele>
        <time>2019-09-14T11:23:53Z</time>
      </trkpt>
      <trkpt lat="43.82518" lon="5.17154">
        <ele>251</ele>
        <time>2019-09-14T11:24:04Z</time>
      </trkpt>
      <trkpt lat="43.82528" lon="5.17158">
        <ele>252</ele>
        <time>2019-09-14T11:24:13Z</time>
      </trkpt>
      <trkpt lat="43.82535" lon="5.17165">
        <ele>252</ele>
        <time>2019-09-14T11:24:21Z</time>
      </trkpt>
      <trkpt lat="43.82543" lon="5.17173">
        <ele>251</ele>
        <time>2019-09-14T11:24:30Z</time>
      </trkpt>
      <trkpt lat="43.8255" lon="5.17182">
        <ele>250</ele>
        <time>2019-09-14T11:24:47Z</time>
      </trkpt>
      <trkpt lat="43.82558" lon="5.17186">
        <ele>251</ele>
        <time>2019-09-14T11:24:56Z</time>
      </trkpt>
      <trkpt lat="43.82566" lon="5.17178">
        <ele>250</ele>
        <time>2019-09-14T11:25:10Z</time>
      </trkpt>
      <trkpt lat="43.82572" lon="5.17168">
        <ele>251</ele>
        <time>2019-09-14T11:25:20Z</time>
      </trkpt>
      <trkpt lat="43.8258" lon="5.17161">
        <ele>250</ele>
        <time>2019-09-14T11:25:30Z</time>
      </trkpt>
      <trkpt lat="43.82586" lon="5.17151">
        <ele>250</ele>
        <time>2019-09-14T11:25:39Z</time>
      </trkpt>
      <trkpt lat="43.82588" lon="5.17138">
        <ele>251</ele>
        <time>2019-09-14T11:25:50Z</time>
      </trkpt>
      <trkpt lat="43.82592" lon="5.17126">
        <ele>251</ele>
        <time>2019-09-14T11:26:01Z</time>
      </trkpt>
      <trkpt lat="43.82595" lon="5.17113">
        <ele>252</ele>
        <time>2019-09-14T11:26:11Z</time>
      </trkpt>
      <trkpt lat="43.82593" lon="5.17101">
        <ele>253</ele>
        <time>2019-09-14T11:26:22Z</time>
      </trkpt>
      <trkpt lat="43.82595" lon="5.17087">
        <ele>253</ele>
        <time>2019-09-14T11:26:32Z</time>
      </trkpt>
      <trkpt lat="43.82597" lon="5.17075">
        <ele>253</ele>
        <time>2019-09-14T11:26:45Z</time>
      </trkpt>
      <trkpt lat="43.82599" lon="5.17062">
        <ele>254</ele>
        <time>2019-09-14T11:26:55Z</time>
      </trkpt>
      <trkpt lat="43.82602" lon="5.17048">
        <ele>254</ele>
        <time>2019-09-14T11:27:07Z</time>
      </trkpt>
      <trkpt lat="43.82604" lon="5.17036">
        <ele>255</ele>
        <time>2019-09-14T11:27:17Z</time>
      </trkpt>
      <trkpt lat="43.82609" lon="5.17025">
        <ele>258</ele>
        <time>2019-09-14T11:27:39Z</time>
      </trkpt>
      <trkpt lat="43.82615" lon="5.17015">
        <ele>257</ele>
        <time>2019-09-14T11:27:49Z</time>
      </trkpt>
      <trkpt lat="43.8262" lon="5.17003">
        <ele>256</ele>
        <time>2019-09-14T11:28:02Z</time>
      </trkpt>
      <trkpt lat="43.82621" lon="5.16991">
        <ele>257</ele>
        <time>2019-09-14T11:28:20Z</time>
      </trkpt>
      <trkpt lat="43.82625" lon="5.1698">
        <ele>257</ele>
        <time>2019-09-14T11:28:36Z</time>
      </trkpt>
      <trkpt lat="43.8263" lon="5.16969">
        <ele>257</ele>
        <time>2019-09-14T11:28:46Z</time>
      </trkpt>
      <trkpt lat="43.82638" lon="5.16962">
        <ele>256</ele>
        <time>2019-09-14T11:28:57Z</time>
      </trkpt>
      <trkpt lat="43.82644" lon="5.16952">
        <ele>256</ele>
        <time>2019-09-14T11:29:08Z</time>
      </trkpt>
      <trkpt lat="43.82648" lon="5.1694">
        <ele>255</ele>
        <time>2019-09-14T11:29:20Z</time>
      </trkpt>
      <trkpt lat="43.82651" lon="5.16927">
        <ele>255</ele>
        <time>2019-09-14T11:29:31Z</time>
      </trkpt>
      <trkpt lat="43.82657" lon="5.16918">
        <ele>255</ele>
        <time>2019-09-14T11:29:39Z</time>
      </trkpt>
      <trkpt lat="43.82662" lon="5.16906">
        <ele>253</ele>
        <time>2019-09-14T11:29:49Z</time>
      </trkpt>
      <trkpt lat="43.82668" lon="5.16895">
        <ele>253</ele>
        <time>2019-09-14T11:30:11Z</time>
      </trkpt>
      <trkpt lat="43.82672" lon="5.16884">
        <ele>251</ele>
        <time>2019-09-14T11:30:23Z</time>
      </trkpt>
      <trkpt lat="43.82677" lon="5.16873">
        <ele>251</ele>
        <time>2019-09-14T11:30:31Z</time>
      </trkpt>
      <trkpt lat="43.82685" lon="5.16867">
        <ele>249</ele>
        <time>2019-09-14T11:30:45Z</time>
      </trkpt>
      <trkpt lat="43.82691" lon="5.16857">
        <ele>248</ele>
        <time>2019-09-14T11:30:59Z</time>
      </trkpt>
      <trkpt lat="43.82698" lon="5.16849">
        <ele>245</ele>
        <time>2019-09-14T11:31:13Z</time>
      </trkpt>
      <trkpt lat="43.82701" lon="5.16836">
        <ele>245</ele>
        <time>2019-09-14T11:31:23Z</time>
      </trkpt>
      <trkpt lat="43.82705" lon="5.16823">
        <ele>245</ele>
        <time>2019-09-14T11:31:36Z</time>
      </trkpt>
      <trkpt lat="43.82704" lon="5.1681">
        <ele>244</ele>
        <time>2019-09-14T11:31:48Z</time>
      </trkpt>
      <trkpt lat="43.82705" lon="5.16797">
        <ele>243</ele>
        <time>2019-09-14T11:31:58Z</time>
      </trkpt>
      <trkpt lat="43.82707" lon="5.16785">
        <ele>241</ele>
        <time>2019-09-14T11:32:07Z</time>
      </trkpt>
      <trkpt lat="43.82706" lon="5.16772">
        <ele>241</ele>
        <time>2019-09-14T11:32:17Z</time>
      </trkpt>
      <trkpt lat="43.8271" lon="5.16759">
        <ele>241</ele>
        <time>2019-09-14T11:32:28Z</time>
      </trkpt>
      <trkpt lat="43.82712" lon="5.16747">
        <ele>239</ele>
        <time>2019-09-14T11:32:37Z</time>
      </trkpt>
      <trkpt lat="43.82714" lon="5.16734">
        <ele>240</ele>
        <time>2019-09-14T11:32:48Z</time>
      </trkpt>
      <trkpt lat="43.82715" lon="5.16721">
        <ele>239</ele>
        <time>2019-09-14T11:33:00Z</time>
      </trkpt>
      <trkpt lat="43.82714" lon="5.16709">
        <ele>239</ele>
        <time>2019-09-14T11:33:10Z</time>
      </trkpt>
      <trkpt lat="43.82715" lon="5.16695">
        <ele>239</ele>
        <time>2019-09-14T11:33:19Z</time>
      </trkpt>
      <trkpt lat="43.82714" lon="5.16682">
        <ele>240</ele>
        <time>2019-09-14T11:33:29Z</time>
      </trkpt>
      <trkpt lat="43.82713" lon="5.1667">
        <ele>239</ele>
        <time>2019-09-14T11:33:50Z</time>
      </trkpt>
      <trkpt lat="43.82714" lon="5.16657">
        <ele>239</ele>
        <time>2019-09-14T11:34:00Z</time>
      </trkpt>
      <trkpt lat="43.82717" lon="5.16644">
        <ele>238</ele>
        <time>2019-09-14T11:34:15Z</time>
      </trkpt>
      <trkpt lat="43.82719" lon="5.16631">
        <ele>238</ele>
        <time>2019-09-14T11:34:25Z</time>
      </trkpt>
      <trkpt lat="43.82722" lon="5.16619">
        <ele>238</ele>
        <time>2019-09-14T11:34:35Z</time>
      </trkpt>
      <trkpt lat="43.82725" lon="5.16606">
        <ele>237</ele>
        <time>2019-09-14T11:34:46Z</time>
      </trkpt>
      <trkpt lat="43.8273" lon="5.16596">
        <ele>237</ele>
        <time>2019-09-14T11:34:55Z</time>
      </trkpt>
      <trkpt lat="43.82732" lon="5.16583">
        <ele>236</ele>
        <time>2019-09-14T11:35:04Z</time>
      </trkpt>
      <trkpt lat="43.82732" lon="5.16569">
        <ele>236</ele>
        <time>2019-09-14T11:35:13Z</time>
      </trkpt>
      <trkpt lat="43.82734" lon="5.16556">
        <ele>237</ele>
        <time>2019-09-14T11:35:22Z</time>
      </trkpt>
      <trkpt lat="43.82738" lon="5.16545">
        <ele>236</ele>
        <time>2019-09-14T11:35:32Z</time>
      </trkpt>
      <trkpt lat="43.82743" lon="5.16533">
        <ele>236</ele>
        <time>2019-09-14T11:35:41Z</time>
      </trkpt>
      <trkpt lat="43.82745" lon="5.16521">
        <ele>236</ele>
        <time>2019-09-14T11:35:49Z</time>
      </trkpt>
      <trkpt lat="43.82749" lon="5.16508">
        <ele>235</ele>
        <time>2019-09-14T11:35:58Z</time>
      </trkpt>
      <trkpt lat="43.82752" lon="5.16496">
        <ele>235</ele>
        <time>2019-09-14T11:36:08Z</time>
      </trkpt>
      <trkpt lat="43.82754" lon="5.16484">
        <ele>235</ele>
        <time>2019-09-14T11:36:18Z</time>
      </trkpt>
      <trkpt lat="43.82754" lon="5.16471">
        <ele>236</ele>
        <time>2019-09-14T11:36:27Z</time>
      </trkpt>
      <trkpt lat="43.82755" lon="5.16458">
        <ele>236</ele>
        <time>2019-09-14T11:36:37Z</time>
      </trkpt>
      <trkpt lat="43.82756" lon="5.16444">
        <ele>236</ele>
        <time>2019-09-14T11:36:47Z</time>
      </trkpt>
      <trkpt lat="43.82759" lon="5.16431">
        <ele>236</ele>
        <time>2019-09-14T11:36:57Z</time>
      </trkpt>
      <trkpt lat="43.82761" lon="5.16419">
        <ele>235</ele>
        <time>2019-09-14T11:37:08Z</time>
      </trkpt>
      <trkpt lat="43.82764" lon="5.16407">
        <ele>233</ele>
        <time>2019-09-14T11:37:25Z</time>
      </trkpt>
      <trkpt lat="43.82767" lon="5.16394">
        <ele>232</ele>
        <time>2019-09-14T11:37:39Z</time>
      </trkpt>
      <trkpt lat="43.82767" lon="5.16381">
        <ele>232</ele>
        <time>2019-09-14T11:37:49Z</time>
      </trkpt>
      <trkpt lat="43.8277" lon="5.16369">
        <ele>231</ele>
        <time>2019-09-14T11:38:02Z</time>
      </trkpt>
      <trkpt lat="43.82771" lon="5.16356">
        <ele>230</ele>
        <time>2019-09-14T11:38:15Z</time>
      </trkpt>
      <trkpt lat="43.82768" lon="5.16343">
        <ele>228</ele>
        <time>2019-09-14T11:38:28Z</time>
      </trkpt>
      <trkpt lat="43.82762" lon="5.16334">
        <ele>229</ele>
        <time>2019-09-14T11:38:38Z</time>
      </trkpt>
      <trkpt lat="43.82756" lon="5.16323">
        <ele>229</ele>
        <time>2019-09-14T11:38:48Z</time>
      </trkpt>
      <trkpt lat="43.82751" lon="5.16313">
        <ele>230</ele>
        <time>2019-09-14T11:38:58Z</time>
      </trkpt>
      <trkpt lat="43.82745" lon="5.16303">
        <ele>229</ele>
        <time>2019-09-14T11:39:09Z</time>
      </trkpt>
      <trkpt lat="43.8274" lon="5.16292">
        <ele>230</ele>
        <time>2019-09-14T11:39:20Z</time>
      </trkpt>
      <trkpt lat="43.82736" lon="5.16282">
        <ele>229</ele>
        <time>2019-09-14T11:39:38Z</time>
      </trkpt>
      <trkpt lat="43.82736" lon="5.16268">
        <ele>230</ele>
        <time>2019-09-14T11:39:58Z</time>
      </trkpt>
      <trkpt lat="43.82743" lon="5.16261">
        <ele>230</ele>
        <time>2019-09-14T11:40:30Z</time>
      </trkpt>
      <trkpt lat="43.82734" lon="5.16261">
        <ele>229</ele>
        <time>2019-09-14T11:41:10Z</time>
      </trkpt>
      <trkpt lat="43.82743" lon="5.16259">
        <ele>227</ele>
        <time>2019-09-14T11:42:10Z</time>
      </trkpt>
      <trkpt lat="43.82752" lon="5.16254">
        <ele>228</ele>
        <time>2019-09-14T11:42:33Z</time>
      </trkpt>
      <trkpt lat="43.82746" lon="5.16265">
        <ele>228</ele>
        <time>2019-09-14T11:42:47Z</time>
      </trkpt>
      <trkpt lat="43.82737" lon="5.1627">
        <ele>227</ele>
        <time>2019-09-14T11:43:03Z</time>
      </trkpt>
      <trkpt lat="43.82732" lon="5.1626">
        <ele>229</ele>
        <time>2019-09-14T11:51:40Z</time>
      </trkpt>
      <trkpt lat="43.82742" lon="5.16263">
        <ele>222</ele>
        <time>2019-09-14T11:56:19Z</time>
      </trkpt>
      <trkpt lat="43.82751" lon="5.16256">
        <ele>224</ele>
        <time>2019-09-14T11:56:39Z</time>
      </trkpt>
      <trkpt lat="43.82765" lon="5.1625">
        <ele>225</ele>
        <time>2019-09-14T11:57:19Z</time>
      </trkpt>
      <trkpt lat="43.8277" lon="5.16262">
        <ele>225</ele>
        <time>2019-09-14T11:57:41Z</time>
      </trkpt>
      <trkpt lat="43.8277" lon="5.16249">
        <ele>226</ele>
        <time>2019-09-14T11:58:07Z</time>
      </trkpt>
      <trkpt lat="43.82776" lon="5.16238">
        <ele>227</ele>
        <time>2019-09-14T11:58:15Z</time>
      </trkpt>
      <trkpt lat="43.82784" lon="5.16229">
        <ele>228</ele>
        <time>2019-09-14T11:58:42Z</time>
      </trkpt>
      <trkpt lat="43.82788" lon="5.16216">
        <ele>230</ele>
        <time>2019-09-14T11:58:49Z</time>
      </trkpt>
      <trkpt lat="43.82792" lon="5.16205">
        <ele>230</ele>
        <time>2019-09-14T11:58:55Z</time>
      </trkpt>
      <trkpt lat="43.82798" lon="5.16195">
        <ele>231</ele>
        <time>2019-09-14T11:59:02Z</time>
      </trkpt>
      <trkpt lat="43.82805" lon="5.16187">
        <ele>233</ele>
        <time>2019-09-14T11:59:09Z</time>
      </trkpt>
      <trkpt lat="43.82811" lon="5.16177">
        <ele>233</ele>
        <time>2019-09-14T11:59:17Z</time>
      </trkpt>
      <trkpt lat="43.82816" lon="5.16166">
        <ele>234</ele>
        <time>2019-09-14T11:59:27Z</time>
      </trkpt>
      <trkpt lat="43.8282" lon="5.16155">
        <ele>234</ele>
        <time>2019-09-14T11:59:40Z</time>
      </trkpt>
      <trkpt lat="43.82818" lon="5.16142">
        <ele>235</ele>
        <time>2019-09-14T11:59:50Z</time>
      </trkpt>
      <trkpt lat="43.8282" lon="5.16129">
        <ele>236</ele>
        <time>2019-09-14T11:59:59Z</time>
      </trkpt>
      <trkpt lat="43.82824" lon="5.16118">
        <ele>237</ele>
        <time>2019-09-14T12:00:11Z</time>
      </trkpt>
      <trkpt lat="43.82833" lon="5.16114">
        <ele>236</ele>
        <time>2019-09-14T12:00:20Z</time>
      </trkpt>
      <trkpt lat="43.82842" lon="5.16118">
        <ele>236</ele>
        <time>2019-09-14T12:00:28Z</time>
      </trkpt>
      <trkpt lat="43.82851" lon="5.16119">
        <ele>237</ele>
        <time>2019-09-14T12:02:02Z</time>
      </trkpt>
      <trkpt lat="43.8286" lon="5.16117">
        <ele>237</ele>
        <time>2019-09-14T12:02:11Z</time>
      </trkpt>
      <trkpt lat="43.8287" lon="5.16122">
        <ele>237</ele>
        <time>2019-09-14T12:02:22Z</time>
      </trkpt>
      <trkpt lat="43.8288" lon="5.16124">
        <ele>238</ele>
        <time>2019-09-14T12:02:29Z</time>
      </trkpt>
      <trkpt lat="43.82889" lon="5.16128">
        <ele>239</ele>
        <time>2019-09-14T12:02:39Z</time>
      </trkpt>
      <trkpt lat="43.82896" lon="5.16136">
        <ele>239</ele>
        <time>2019-09-14T12:02:49Z</time>
      </trkpt>
      <trkpt lat="43.82901" lon="5.16146">
        <ele>241</ele>
        <time>2019-09-14T12:02:58Z</time>
      </trkpt>
      <trkpt lat="43.82906" lon="5.16158">
        <ele>241</ele>
        <time>2019-09-14T12:03:09Z</time>
      </trkpt>
      <trkpt lat="43.82911" lon="5.16169">
        <ele>241</ele>
        <time>2019-09-14T12:03:19Z</time>
      </trkpt>
      <trkpt lat="43.82918" lon="5.16179">
        <ele>243</ele>
        <time>2019-09-14T12:03:28Z</time>
      </trkpt>
      <trkpt lat="43.82926" lon="5.16186">
        <ele>243</ele>
        <time>2019-09-14T12:03:37Z</time>
      </trkpt>
      <trkpt lat="43.82935" lon="5.16189">
        <ele>243</ele>
        <time>2019-09-14T12:03:48Z</time>
      </trkpt>
      <trkpt lat="43.82944" lon="5.16193">
        <ele>243</ele>
        <time>2019-09-14T12:03:55Z</time>
      </trkpt>
      <trkpt lat="43.82953" lon="5.16193">
        <ele>243</ele>
        <time>2019-09-14T12:04:02Z</time>
      </trkpt>
      <trkpt lat="43.82955" lon="5.16179">
        <ele>242</ele>
        <time>2019-09-14T12:04:10Z</time>
      </trkpt>
      <trkpt lat="43.82953" lon="5.16167">
        <ele>242</ele>
        <time>2019-09-14T12:04:19Z</time>
      </trkpt>
      <trkpt lat="43.82952" lon="5.16154">
        <ele>241</ele>
        <time>2019-09-14T12:04:43Z</time>
      </trkpt>
      <trkpt lat="43.82954" lon="5.16141">
        <ele>241</ele>
        <time>2019-09-14T12:04:55Z</time>
      </trkpt>
      <trkpt lat="43.82958" lon="5.16129">
        <ele>241</ele>
        <time>2019-09-14T12:05:03Z</time>
      </trkpt>
      <trkpt lat="43.8296" lon="5.16116">
        <ele>241</ele>
        <time>2019-09-14T12:05:12Z</time>
      </trkpt>
      <trkpt lat="43.82964" lon="5.16103">
        <ele>240</ele>
        <time>2019-09-14T12:05:22Z</time>
      </trkpt>
      <trkpt lat="43.82965" lon="5.1609">
        <ele>239</ele>
        <time>2019-09-14T12:05:31Z</time>
      </trkpt>
      <trkpt lat="43.82966" lon="5.16077">
        <ele>240</ele>
        <time>2019-09-14T12:05:42Z</time>
      </trkpt>
      <trkpt lat="43.82971" lon="5.16067">
        <ele>239</ele>
        <time>2019-09-14T12:05:50Z</time>
      </trkpt>
      <trkpt lat="43.82975" lon="5.16055">
        <ele>239</ele>
        <time>2019-09-14T12:06:00Z</time>
      </trkpt>
      <trkpt lat="43.8298" lon="5.16044">
        <ele>240</ele>
        <time>2019-09-14T12:06:10Z</time>
      </trkpt>
      <trkpt lat="43.82988" lon="5.16036">
        <ele>240</ele>
        <time>2019-09-14T12:06:19Z</time>
      </trkpt>
      <trkpt lat="43.82995" lon="5.16027">
        <ele>240</ele>
        <time>2019-09-14T12:06:30Z</time>
      </trkpt>
      <trkpt lat="43.83001" lon="5.16017">
        <ele>241</ele>
        <time>2019-09-14T12:06:40Z</time>
      </trkpt>
      <trkpt lat="43.83003" lon="5.16005">
        <ele>242</ele>
        <time>2019-09-14T12:07:07Z</time>
      </trkpt>
      <trkpt lat="43.83003" lon="5.16018">
        <ele>241</ele>
        <time>2019-09-14T12:07:21Z</time>
      </trkpt>
      <trkpt lat="43.83001" lon="5.16031">
        <ele>242</ele>
        <time>2019-09-14T12:07:30Z</time>
      </trkpt>
      <trkpt lat="43.83011" lon="5.16034">
        <ele>241</ele>
        <time>2019-09-14T12:07:47Z</time>
      </trkpt>
      <trkpt lat="43.83018" lon="5.16027">
        <ele>240</ele>
        <time>2019-09-14T12:07:53Z</time>
      </trkpt>
      <trkpt lat="43.83023" lon="5.16038">
        <ele>239</ele>
        <time>2019-09-14T12:08:03Z</time>
      </trkpt>
      <trkpt lat="43.83022" lon="5.16051">
        <ele>238</ele>
        <time>2019-09-14T12:08:13Z</time>
      </trkpt>
      <trkpt lat="43.8303" lon="5.16059">
        <ele>237</ele>
        <time>2019-09-14T12:08:26Z</time>
      </trkpt>
      <trkpt lat="43.83038" lon="5.16055">
        <ele>236</ele>
        <time>2019-09-14T12:08:36Z</time>
      </trkpt>
      <trkpt lat="43.83048" lon="5.16057">
        <ele>233</ele>
        <time>2019-09-14T12:08:57Z</time>
      </trkpt>
      <trkpt lat="43.83055" lon="5.16047">
        <ele>232</ele>
        <time>2019-09-14T12:09:06Z</time>
      </trkpt>
      <trkpt lat="43.83059" lon="5.16035">
        <ele>231</ele>
        <time>2019-09-14T12:09:14Z</time>
      </trkpt>
      <trkpt lat="43.83067" lon="5.16027">
        <ele>230</ele>
        <time>2019-09-14T12:09:22Z</time>
      </trkpt>
      <trkpt lat="43.83076" lon="5.16026">
        <ele>229</ele>
        <time>2019-09-14T12:09:36Z</time>
      </trkpt>
      <trkpt lat="43.83085" lon="5.16024">
        <ele>228</ele>
        <time>2019-09-14T12:09:48Z</time>
      </trkpt>
      <trkpt lat="43.83092" lon="5.16013">
        <ele>226</ele>
        <time>2019-09-14T12:09:56Z</time>
      </trkpt>
      <trkpt lat="43.83097" lon="5.16003">
        <ele>225</ele>
        <time>2019-09-14T12:10:03Z</time>
      </trkpt>
      <trkpt lat="43.83102" lon="5.15992">
        <ele>225</ele>
        <time>2019-09-14T12:10:10Z</time>
      </trkpt>
      <trkpt lat="43.83095" lon="5.15983">
        <ele>224</ele>
        <time>2019-09-14T12:11:21Z</time>
      </trkpt>
      <trkpt lat="43.83105" lon="5.15982">
        <ele>220</ele>
        <time>2019-09-14T12:11:57Z</time>
      </trkpt>
      <trkpt lat="43.83104" lon="5.15982">
        <ele>220</ele>
        <time>2019-09-14T12:12:08Z</time>
      </trkpt>
    </trkseg>
  </trk>
</gpx>